<?xml version="1.0" encoding="UTF-8" standalone="no" ?>
<gpx xmlns="http://www.topografix.com/GPX/1/1" xmlns:xsi="http://www.w3.org/2001/XMLSchema-instance" xsi:schemaLocation="http://www.topografix.com/GPX/1/1 http://www.topografix.com/GPX/1/1/gpx.xsd" version="1.1" creator="VisuGPX - https://www.visugpx.com">
  <metadata>
    <name>Hourquette de Mounicot - 2547 m - en boucle</name>
    <desc><![CDATA[Hourquette de Mounicot en boucle au départ de Chez Louisette - montée par le vallon de la Glère et descente par Dets Coubous sur Tournaboup.]]></desc>
  </metadata>
  <wpt lat="42.89612" lon="0.08233">
    <ele>1521.52</ele>
    <name><![CDATA[0000018]]></name>
    <type><![CDATA[Point de départ]]></type>
  </wpt>
  <wpt lat="42.90351" lon="0.10317">
    <ele>1472.83</ele>
    <name><![CDATA[0000019]]></name>
    <desc><![CDATA[<p><br /><h3>Nom: Segment: 1</h3><br />Heure de départ: 03/02/2018 09:12<br/>Heure d'arrivée: 03/02/2018 15:47<br/>Distance: 14,6km (06:35)<br/>Temps déplacement: 03:06<br/>Vitesse moyenne: 2,22 km/h<br/>Vitesse moyenne mouv.: 4,48 km/h<br/>Vitesse Max.: 29,37 km/h<br/>Altitude minimale: 1472 m<br/>Altitude maximale: 2558 m<br/>Vitesse de montée: 255,1 m/h<br/>Vitesse de descente: -481,4 m/h<br/>Gain d'altitude: 1070 m<br/>Perte d'altitude: -1113 m<br/>Temps de montée: 04:11<br/>Temps de descente: 02:18<br/></p>]]></desc>
    <type><![CDATA[Point d'arrivée]]></type>
  </wpt>
  <trk>
    <name><![CDATA[2018-03-02 09:12]]></name>
    <desc><![CDATA[<p>Heure de départ: 03/02/2018 09:12<br/>Heure d'arrivée: 03/02/2018 15:47<br/>Distance: 14,6 km (06:35)<br/>Temps déplacement: 03:06<br/>Vitesse moyenne: 2,22 km/h<br/>Vitesse moyenne mouv.: 4,71 km/h<br/>Vitesse Max.: 29,37 km/h<br/>Altitude minimale: 1472 m<br/>Altitude maximale: 2558 m<br/>Vitesse de montée: 254,5 m/h<br/>Vitesse de descente: -483,2 m/h<br/>Gain d'altitude: 1061 m<br/>Perte d'altitude: -1115 m<br/>Temps de montée: 04:10<br/>Temps de descente: 02:18<br/></p><hr align="center" width="480" style="height: 2px; width: 517px"/>]]></desc>
    <trkseg>
      <trkpt lat="42.89612" lon="0.08233">
        <ele>1521.52</ele>
        <time>2018-03-02T08:12:27Z</time>
      </trkpt>
      <trkpt lat="42.89596" lon="0.08246">
        <ele>1534.84</ele>
        <time>2018-03-02T08:20:36Z</time>
      </trkpt>
      <trkpt lat="42.89582" lon="0.08262">
        <ele>1531.82</ele>
        <time>2018-03-02T08:20:51Z</time>
      </trkpt>
      <trkpt lat="42.8957" lon="0.08281">
        <ele>1530.82</ele>
        <time>2018-03-02T08:23:02Z</time>
      </trkpt>
      <trkpt lat="42.89553" lon="0.08286">
        <ele>1539.22</ele>
        <time>2018-03-02T08:28:55Z</time>
      </trkpt>
      <trkpt lat="42.89535" lon="0.08292">
        <ele>1537.61</ele>
        <time>2018-03-02T08:29:07Z</time>
      </trkpt>
      <trkpt lat="42.89519" lon="0.08305">
        <ele>1533.85</ele>
        <time>2018-03-02T08:29:18Z</time>
      </trkpt>
      <trkpt lat="42.89504" lon="0.0832">
        <ele>1530.46</ele>
        <time>2018-03-02T08:29:29Z</time>
      </trkpt>
      <trkpt lat="42.89488" lon="0.08332">
        <ele>1527.63</ele>
        <time>2018-03-02T08:29:40Z</time>
      </trkpt>
      <trkpt lat="42.8947" lon="0.08324">
        <ele>1527.53</ele>
        <time>2018-03-02T08:29:53Z</time>
      </trkpt>
      <trkpt lat="42.89465" lon="0.083">
        <ele>1527.55</ele>
        <time>2018-03-02T08:30:15Z</time>
      </trkpt>
      <trkpt lat="42.89451" lon="0.08283">
        <ele>1524.55</ele>
        <time>2018-03-02T08:30:31Z</time>
      </trkpt>
      <trkpt lat="42.89433" lon="0.08277">
        <ele>1522.53</ele>
        <time>2018-03-02T08:30:43Z</time>
      </trkpt>
      <trkpt lat="42.89414" lon="0.08272">
        <ele>1521.5</ele>
        <time>2018-03-02T08:30:56Z</time>
      </trkpt>
      <trkpt lat="42.89397" lon="0.08265">
        <ele>1519.55</ele>
        <time>2018-03-02T08:31:09Z</time>
      </trkpt>
      <trkpt lat="42.89392" lon="0.08241">
        <ele>1518.52</ele>
        <time>2018-03-02T08:31:53Z</time>
      </trkpt>
      <trkpt lat="42.89392" lon="0.08216">
        <ele>1519.81</ele>
        <time>2018-03-02T08:32:09Z</time>
      </trkpt>
      <trkpt lat="42.89401" lon="0.08193">
        <ele>1521.43</ele>
        <time>2018-03-02T08:32:25Z</time>
      </trkpt>
      <trkpt lat="42.89412" lon="0.08171">
        <ele>1520.25</ele>
        <time>2018-03-02T08:32:41Z</time>
      </trkpt>
      <trkpt lat="42.89423" lon="0.08151">
        <ele>1521.25</ele>
        <time>2018-03-02T08:33:07Z</time>
      </trkpt>
      <trkpt lat="42.8941" lon="0.08133">
        <ele>1517.52</ele>
        <time>2018-03-02T08:33:26Z</time>
      </trkpt>
      <trkpt lat="42.89392" lon="0.08127">
        <ele>1518.31</ele>
        <time>2018-03-02T08:33:49Z</time>
      </trkpt>
      <trkpt lat="42.89375" lon="0.08135">
        <ele>1520.52</ele>
        <time>2018-03-02T08:34:16Z</time>
      </trkpt>
      <trkpt lat="42.89357" lon="0.08143">
        <ele>1525.22</ele>
        <time>2018-03-02T08:34:38Z</time>
      </trkpt>
      <trkpt lat="42.8934" lon="0.08152">
        <ele>1527.51</ele>
        <time>2018-03-02T08:34:59Z</time>
      </trkpt>
      <trkpt lat="42.89323" lon="0.0816">
        <ele>1532.43</ele>
        <time>2018-03-02T08:35:24Z</time>
      </trkpt>
      <trkpt lat="42.89306" lon="0.08171">
        <ele>1534.58</ele>
        <time>2018-03-02T08:35:47Z</time>
      </trkpt>
      <trkpt lat="42.89288" lon="0.08174">
        <ele>1535.52</ele>
        <time>2018-03-02T08:36:08Z</time>
      </trkpt>
      <trkpt lat="42.8927" lon="0.08173">
        <ele>1538.46</ele>
        <time>2018-03-02T08:36:29Z</time>
      </trkpt>
      <trkpt lat="42.89252" lon="0.08175">
        <ele>1542.52</ele>
        <time>2018-03-02T08:36:51Z</time>
      </trkpt>
      <trkpt lat="42.89235" lon="0.08187">
        <ele>1545.43</ele>
        <time>2018-03-02T08:37:15Z</time>
      </trkpt>
      <trkpt lat="42.8922" lon="0.08199">
        <ele>1547.5</ele>
        <time>2018-03-02T08:37:35Z</time>
      </trkpt>
      <trkpt lat="42.89204" lon="0.08213">
        <ele>1551.13</ele>
        <time>2018-03-02T08:37:57Z</time>
      </trkpt>
      <trkpt lat="42.89186" lon="0.08223">
        <ele>1552.51</ele>
        <time>2018-03-02T08:38:21Z</time>
      </trkpt>
      <trkpt lat="42.8917" lon="0.08236">
        <ele>1555.49</ele>
        <time>2018-03-02T08:38:42Z</time>
      </trkpt>
      <trkpt lat="42.89154" lon="0.08248">
        <ele>1558.43</ele>
        <time>2018-03-02T08:39:01Z</time>
      </trkpt>
      <trkpt lat="42.8914" lon="0.08264">
        <ele>1557.61</ele>
        <time>2018-03-02T08:39:21Z</time>
      </trkpt>
      <trkpt lat="42.89125" lon="0.08278">
        <ele>1558.52</ele>
        <time>2018-03-02T08:39:40Z</time>
      </trkpt>
      <trkpt lat="42.89107" lon="0.08286">
        <ele>1557.52</ele>
        <time>2018-03-02T08:40:02Z</time>
      </trkpt>
      <trkpt lat="42.89089" lon="0.08293">
        <ele>1561.22</ele>
        <time>2018-03-02T08:40:22Z</time>
      </trkpt>
      <trkpt lat="42.8907" lon="0.08295">
        <ele>1562.82</ele>
        <time>2018-03-02T08:40:43Z</time>
      </trkpt>
      <trkpt lat="42.89053" lon="0.08303">
        <ele>1563.52</ele>
        <time>2018-03-02T08:41:02Z</time>
      </trkpt>
      <trkpt lat="42.89035" lon="0.08311">
        <ele>1563.55</ele>
        <time>2018-03-02T08:41:22Z</time>
      </trkpt>
      <trkpt lat="42.89016" lon="0.08317">
        <ele>1566.49</ele>
        <time>2018-03-02T08:41:40Z</time>
      </trkpt>
      <trkpt lat="42.88998" lon="0.08316">
        <ele>1563.52</ele>
        <time>2018-03-02T08:42:01Z</time>
      </trkpt>
      <trkpt lat="42.8898" lon="0.08315">
        <ele>1567.52</ele>
        <time>2018-03-02T08:42:21Z</time>
      </trkpt>
      <trkpt lat="42.88961" lon="0.08317">
        <ele>1568.53</ele>
        <time>2018-03-02T08:42:39Z</time>
      </trkpt>
      <trkpt lat="42.88943" lon="0.08323">
        <ele>1569.55</ele>
        <time>2018-03-02T08:42:56Z</time>
      </trkpt>
      <trkpt lat="42.88925" lon="0.08325">
        <ele>1570.52</ele>
        <time>2018-03-02T08:43:14Z</time>
      </trkpt>
      <trkpt lat="42.88906" lon="0.08323">
        <ele>1572.5</ele>
        <time>2018-03-02T08:43:33Z</time>
      </trkpt>
      <trkpt lat="42.88889" lon="0.08314">
        <ele>1573.46</ele>
        <time>2018-03-02T08:43:51Z</time>
      </trkpt>
      <trkpt lat="42.88871" lon="0.08313">
        <ele>1575.5</ele>
        <time>2018-03-02T08:44:09Z</time>
      </trkpt>
      <trkpt lat="42.88856" lon="0.08327">
        <ele>1570.76</ele>
        <time>2018-03-02T08:44:29Z</time>
      </trkpt>
      <trkpt lat="42.88841" lon="0.08341">
        <ele>1569.52</ele>
        <time>2018-03-02T08:44:46Z</time>
      </trkpt>
      <trkpt lat="42.88823" lon="0.08349">
        <ele>1571.53</ele>
        <time>2018-03-02T08:45:02Z</time>
      </trkpt>
      <trkpt lat="42.88804" lon="0.08347">
        <ele>1570.82</ele>
        <time>2018-03-02T08:45:19Z</time>
      </trkpt>
      <trkpt lat="42.88786" lon="0.0835">
        <ele>1568.52</ele>
        <time>2018-03-02T08:45:38Z</time>
      </trkpt>
      <trkpt lat="42.88768" lon="0.08352">
        <ele>1568.82</ele>
        <time>2018-03-02T08:45:54Z</time>
      </trkpt>
      <trkpt lat="42.88749" lon="0.08358">
        <ele>1571.51</ele>
        <time>2018-03-02T08:46:13Z</time>
      </trkpt>
      <trkpt lat="42.88731" lon="0.08355">
        <ele>1571.75</ele>
        <time>2018-03-02T08:46:33Z</time>
      </trkpt>
      <trkpt lat="42.88713" lon="0.08347">
        <ele>1572.8</ele>
        <time>2018-03-02T08:46:51Z</time>
      </trkpt>
      <trkpt lat="42.88695" lon="0.08341">
        <ele>1573.61</ele>
        <time>2018-03-02T08:47:12Z</time>
      </trkpt>
      <trkpt lat="42.88678" lon="0.0833">
        <ele>1576.5</ele>
        <time>2018-03-02T08:47:31Z</time>
      </trkpt>
      <trkpt lat="42.88666" lon="0.08312">
        <ele>1575.52</ele>
        <time>2018-03-02T08:47:46Z</time>
      </trkpt>
      <trkpt lat="42.8865" lon="0.08301">
        <ele>1575.53</ele>
        <time>2018-03-02T08:48:06Z</time>
      </trkpt>
      <trkpt lat="42.88632" lon="0.08293">
        <ele>1575.8</ele>
        <time>2018-03-02T08:48:26Z</time>
      </trkpt>
      <trkpt lat="42.88613" lon="0.08291">
        <ele>1575.45</ele>
        <time>2018-03-02T08:48:51Z</time>
      </trkpt>
      <trkpt lat="42.88595" lon="0.08287">
        <ele>1575.51</ele>
        <time>2018-03-02T08:49:09Z</time>
      </trkpt>
      <trkpt lat="42.88577" lon="0.08281">
        <ele>1576.52</ele>
        <time>2018-03-02T08:49:27Z</time>
      </trkpt>
      <trkpt lat="42.88559" lon="0.08276">
        <ele>1578.52</ele>
        <time>2018-03-02T08:49:48Z</time>
      </trkpt>
      <trkpt lat="42.88541" lon="0.08267">
        <ele>1580.52</ele>
        <time>2018-03-02T08:50:11Z</time>
      </trkpt>
      <trkpt lat="42.88524" lon="0.0826">
        <ele>1583.3</ele>
        <time>2018-03-02T08:50:31Z</time>
      </trkpt>
      <trkpt lat="42.88507" lon="0.08248">
        <ele>1583.52</ele>
        <time>2018-03-02T08:50:48Z</time>
      </trkpt>
      <trkpt lat="42.88491" lon="0.08235">
        <ele>1583.58</ele>
        <time>2018-03-02T08:51:14Z</time>
      </trkpt>
      <trkpt lat="42.88473" lon="0.08226">
        <ele>1583.43</ele>
        <time>2018-03-02T08:51:46Z</time>
      </trkpt>
      <trkpt lat="42.88454" lon="0.08223">
        <ele>1586.13</ele>
        <time>2018-03-02T08:52:06Z</time>
      </trkpt>
      <trkpt lat="42.88437" lon="0.08218">
        <ele>1587.23</ele>
        <time>2018-03-02T08:52:27Z</time>
      </trkpt>
      <trkpt lat="42.88418" lon="0.08217">
        <ele>1588.82</ele>
        <time>2018-03-02T08:52:49Z</time>
      </trkpt>
      <trkpt lat="42.88399" lon="0.08215">
        <ele>1591.24</ele>
        <time>2018-03-02T08:53:11Z</time>
      </trkpt>
      <trkpt lat="42.88381" lon="0.08219">
        <ele>1592.82</ele>
        <time>2018-03-02T08:53:35Z</time>
      </trkpt>
      <trkpt lat="42.88363" lon="0.08223">
        <ele>1595.22</ele>
        <time>2018-03-02T08:53:56Z</time>
      </trkpt>
      <trkpt lat="42.88344" lon="0.08221">
        <ele>1595.58</ele>
        <time>2018-03-02T08:54:16Z</time>
      </trkpt>
      <trkpt lat="42.88326" lon="0.08218">
        <ele>1596.52</ele>
        <time>2018-03-02T08:54:35Z</time>
      </trkpt>
      <trkpt lat="42.88307" lon="0.08223">
        <ele>1596.31</ele>
        <time>2018-03-02T08:54:58Z</time>
      </trkpt>
      <trkpt lat="42.88289" lon="0.08223">
        <ele>1597.5</ele>
        <time>2018-03-02T08:55:23Z</time>
      </trkpt>
      <trkpt lat="42.88271" lon="0.08225">
        <ele>1600.5</ele>
        <time>2018-03-02T08:55:43Z</time>
      </trkpt>
      <trkpt lat="42.88252" lon="0.08228">
        <ele>1599.76</ele>
        <time>2018-03-02T08:56:02Z</time>
      </trkpt>
      <trkpt lat="42.88234" lon="0.08234">
        <ele>1601.8</ele>
        <time>2018-03-02T08:56:20Z</time>
      </trkpt>
      <trkpt lat="42.88216" lon="0.0824">
        <ele>1603.51</ele>
        <time>2018-03-02T08:56:36Z</time>
      </trkpt>
      <trkpt lat="42.88198" lon="0.08237">
        <ele>1604.49</ele>
        <time>2018-03-02T08:56:56Z</time>
      </trkpt>
      <trkpt lat="42.88182" lon="0.08225">
        <ele>1604.41</ele>
        <time>2018-03-02T08:57:16Z</time>
      </trkpt>
      <trkpt lat="42.88164" lon="0.08224">
        <ele>1607.49</ele>
        <time>2018-03-02T08:57:37Z</time>
      </trkpt>
      <trkpt lat="42.88147" lon="0.08233">
        <ele>1610.59</ele>
        <time>2018-03-02T08:57:57Z</time>
      </trkpt>
      <trkpt lat="42.88129" lon="0.08226">
        <ele>1612.49</ele>
        <time>2018-03-02T08:58:19Z</time>
      </trkpt>
      <trkpt lat="42.8811" lon="0.08229">
        <ele>1611.52</ele>
        <time>2018-03-02T08:58:38Z</time>
      </trkpt>
      <trkpt lat="42.88094" lon="0.08239">
        <ele>1610.73</ele>
        <time>2018-03-02T08:58:59Z</time>
      </trkpt>
      <trkpt lat="42.88078" lon="0.08253">
        <ele>1613.19</ele>
        <time>2018-03-02T08:59:17Z</time>
      </trkpt>
      <trkpt lat="42.88061" lon="0.08262">
        <ele>1616.29</ele>
        <time>2018-03-02T08:59:39Z</time>
      </trkpt>
      <trkpt lat="42.88043" lon="0.08268">
        <ele>1619.52</ele>
        <time>2018-03-02T09:00:02Z</time>
      </trkpt>
      <trkpt lat="42.88026" lon="0.08279">
        <ele>1620.31</ele>
        <time>2018-03-02T09:00:25Z</time>
      </trkpt>
      <trkpt lat="42.88009" lon="0.08289">
        <ele>1626.2</ele>
        <time>2018-03-02T09:00:44Z</time>
      </trkpt>
      <trkpt lat="42.87992" lon="0.08299">
        <ele>1626.61</ele>
        <time>2018-03-02T09:01:07Z</time>
      </trkpt>
      <trkpt lat="42.87974" lon="0.08303">
        <ele>1629.52</ele>
        <time>2018-03-02T09:01:31Z</time>
      </trkpt>
      <trkpt lat="42.87955" lon="0.08299">
        <ele>1630.52</ele>
        <time>2018-03-02T09:01:54Z</time>
      </trkpt>
      <trkpt lat="42.8794" lon="0.08285">
        <ele>1632.49</ele>
        <time>2018-03-02T09:02:10Z</time>
      </trkpt>
      <trkpt lat="42.87921" lon="0.08284">
        <ele>1635.82</ele>
        <time>2018-03-02T09:02:31Z</time>
      </trkpt>
      <trkpt lat="42.87904" lon="0.08294">
        <ele>1636.43</ele>
        <time>2018-03-02T09:02:49Z</time>
      </trkpt>
      <trkpt lat="42.87888" lon="0.08305">
        <ele>1636.51</ele>
        <time>2018-03-02T09:03:08Z</time>
      </trkpt>
      <trkpt lat="42.87871" lon="0.08313">
        <ele>1636.2</ele>
        <time>2018-03-02T09:03:29Z</time>
      </trkpt>
      <trkpt lat="42.87855" lon="0.08326">
        <ele>1636.22</ele>
        <time>2018-03-02T09:03:50Z</time>
      </trkpt>
      <trkpt lat="42.8784" lon="0.08339">
        <ele>1638.52</ele>
        <time>2018-03-02T09:04:09Z</time>
      </trkpt>
      <trkpt lat="42.87825" lon="0.08354">
        <ele>1639.54</ele>
        <time>2018-03-02T09:04:28Z</time>
      </trkpt>
      <trkpt lat="42.87808" lon="0.08363">
        <ele>1638.51</ele>
        <time>2018-03-02T09:04:48Z</time>
      </trkpt>
      <trkpt lat="42.87791" lon="0.08375">
        <ele>1640.22</ele>
        <time>2018-03-02T09:05:09Z</time>
      </trkpt>
      <trkpt lat="42.87773" lon="0.08381">
        <ele>1644.28</ele>
        <time>2018-03-02T09:05:27Z</time>
      </trkpt>
      <trkpt lat="42.87757" lon="0.08394">
        <ele>1641.82</ele>
        <time>2018-03-02T09:05:46Z</time>
      </trkpt>
      <trkpt lat="42.8774" lon="0.084">
        <ele>1643.21</ele>
        <time>2018-03-02T09:06:02Z</time>
      </trkpt>
      <trkpt lat="42.87721" lon="0.08403">
        <ele>1643.44</ele>
        <time>2018-03-02T09:06:19Z</time>
      </trkpt>
      <trkpt lat="42.87703" lon="0.08405">
        <ele>1641.44</ele>
        <time>2018-03-02T09:06:39Z</time>
      </trkpt>
      <trkpt lat="42.87685" lon="0.08406">
        <ele>1641.25</ele>
        <time>2018-03-02T09:06:58Z</time>
      </trkpt>
      <trkpt lat="42.87667" lon="0.08408">
        <ele>1645.52</ele>
        <time>2018-03-02T09:07:17Z</time>
      </trkpt>
      <trkpt lat="42.87648" lon="0.08413">
        <ele>1646.53</ele>
        <time>2018-03-02T09:07:38Z</time>
      </trkpt>
      <trkpt lat="42.87632" lon="0.08422">
        <ele>1645.5</ele>
        <time>2018-03-02T09:08:00Z</time>
      </trkpt>
      <trkpt lat="42.87613" lon="0.08426">
        <ele>1647.49</ele>
        <time>2018-03-02T09:08:18Z</time>
      </trkpt>
      <trkpt lat="42.87595" lon="0.08431">
        <ele>1650.51</ele>
        <time>2018-03-02T09:08:40Z</time>
      </trkpt>
      <trkpt lat="42.87577" lon="0.08435">
        <ele>1652.53</ele>
        <time>2018-03-02T09:08:57Z</time>
      </trkpt>
      <trkpt lat="42.87558" lon="0.08437">
        <ele>1653.52</ele>
        <time>2018-03-02T09:09:16Z</time>
      </trkpt>
      <trkpt lat="42.87544" lon="0.08451">
        <ele>1652.46</ele>
        <time>2018-03-02T09:09:38Z</time>
      </trkpt>
      <trkpt lat="42.87531" lon="0.0847">
        <ele>1648.55</ele>
        <time>2018-03-02T09:09:58Z</time>
      </trkpt>
      <trkpt lat="42.87516" lon="0.08485">
        <ele>1647.44</ele>
        <time>2018-03-02T09:10:18Z</time>
      </trkpt>
      <trkpt lat="42.87504" lon="0.08504">
        <ele>1644.82</ele>
        <time>2018-03-02T09:10:42Z</time>
      </trkpt>
      <trkpt lat="42.87485" lon="0.0851">
        <ele>1657.61</ele>
        <time>2018-03-02T09:23:07Z</time>
      </trkpt>
      <trkpt lat="42.87468" lon="0.08518">
        <ele>1658.22</ele>
        <time>2018-03-02T09:23:27Z</time>
      </trkpt>
      <trkpt lat="42.87451" lon="0.08528">
        <ele>1659.52</ele>
        <time>2018-03-02T09:23:47Z</time>
      </trkpt>
      <trkpt lat="42.87435" lon="0.08541">
        <ele>1658.76</ele>
        <time>2018-03-02T09:24:11Z</time>
      </trkpt>
      <trkpt lat="42.87418" lon="0.0855">
        <ele>1656.45</ele>
        <time>2018-03-02T09:24:33Z</time>
      </trkpt>
      <trkpt lat="42.87403" lon="0.08564">
        <ele>1659.43</ele>
        <time>2018-03-02T09:24:52Z</time>
      </trkpt>
      <trkpt lat="42.87387" lon="0.08574">
        <ele>1661.79</ele>
        <time>2018-03-02T09:25:14Z</time>
      </trkpt>
      <trkpt lat="42.8737" lon="0.08584">
        <ele>1661.52</ele>
        <time>2018-03-02T09:25:50Z</time>
      </trkpt>
      <trkpt lat="42.87352" lon="0.08589">
        <ele>1669.42</ele>
        <time>2018-03-02T09:26:15Z</time>
      </trkpt>
      <trkpt lat="42.87335" lon="0.086">
        <ele>1671.52</ele>
        <time>2018-03-02T09:26:35Z</time>
      </trkpt>
      <trkpt lat="42.87319" lon="0.08615">
        <ele>1674.31</ele>
        <time>2018-03-02T09:26:58Z</time>
      </trkpt>
      <trkpt lat="42.87301" lon="0.08612">
        <ele>1679.22</ele>
        <time>2018-03-02T09:27:25Z</time>
      </trkpt>
      <trkpt lat="42.87283" lon="0.08607">
        <ele>1680.82</ele>
        <time>2018-03-02T09:27:47Z</time>
      </trkpt>
      <trkpt lat="42.87265" lon="0.08604">
        <ele>1681.54</ele>
        <time>2018-03-02T09:28:05Z</time>
      </trkpt>
      <trkpt lat="42.87247" lon="0.0861">
        <ele>1683.85</ele>
        <time>2018-03-02T09:28:24Z</time>
      </trkpt>
      <trkpt lat="42.87229" lon="0.08617">
        <ele>1687.41</ele>
        <time>2018-03-02T09:28:47Z</time>
      </trkpt>
      <trkpt lat="42.87211" lon="0.08621">
        <ele>1688.52</ele>
        <time>2018-03-02T09:29:14Z</time>
      </trkpt>
      <trkpt lat="42.87198" lon="0.08603">
        <ele>1700.43</ele>
        <time>2018-03-02T09:30:00Z</time>
      </trkpt>
      <trkpt lat="42.8718" lon="0.08602">
        <ele>1699.43</ele>
        <time>2018-03-02T09:30:28Z</time>
      </trkpt>
      <trkpt lat="42.87161" lon="0.08607">
        <ele>1707.22</ele>
        <time>2018-03-02T09:30:57Z</time>
      </trkpt>
      <trkpt lat="42.87142" lon="0.0861">
        <ele>1715.22</ele>
        <time>2018-03-02T09:31:24Z</time>
      </trkpt>
      <trkpt lat="42.87124" lon="0.08615">
        <ele>1718.82</ele>
        <time>2018-03-02T09:31:55Z</time>
      </trkpt>
      <trkpt lat="42.87105" lon="0.08617">
        <ele>1725.89</ele>
        <time>2018-03-02T09:32:25Z</time>
      </trkpt>
      <trkpt lat="42.87087" lon="0.08622">
        <ele>1731.73</ele>
        <time>2018-03-02T09:33:01Z</time>
      </trkpt>
      <trkpt lat="42.87069" lon="0.08621">
        <ele>1742.52</ele>
        <time>2018-03-02T09:33:45Z</time>
      </trkpt>
      <trkpt lat="42.87053" lon="0.08634">
        <ele>1745.44</ele>
        <time>2018-03-02T09:34:26Z</time>
      </trkpt>
      <trkpt lat="42.87039" lon="0.0865">
        <ele>1747.52</ele>
        <time>2018-03-02T09:34:47Z</time>
      </trkpt>
      <trkpt lat="42.87024" lon="0.08667">
        <ele>1752.58</ele>
        <time>2018-03-02T09:35:16Z</time>
      </trkpt>
      <trkpt lat="42.87007" lon="0.08674">
        <ele>1754.82</ele>
        <time>2018-03-02T09:36:06Z</time>
      </trkpt>
      <trkpt lat="42.87009" lon="0.087">
        <ele>1755.31</ele>
        <time>2018-03-02T09:37:11Z</time>
      </trkpt>
      <trkpt lat="42.87008" lon="0.08725">
        <ele>1755.42</ele>
        <time>2018-03-02T09:37:44Z</time>
      </trkpt>
      <trkpt lat="42.86995" lon="0.08741">
        <ele>1765.49</ele>
        <time>2018-03-02T09:38:20Z</time>
      </trkpt>
      <trkpt lat="42.8698" lon="0.08727">
        <ele>1769.83</ele>
        <time>2018-03-02T09:39:06Z</time>
      </trkpt>
      <trkpt lat="42.86962" lon="0.08734">
        <ele>1774.28</ele>
        <time>2018-03-02T09:39:33Z</time>
      </trkpt>
      <trkpt lat="42.86944" lon="0.08736">
        <ele>1783.7</ele>
        <time>2018-03-02T09:40:00Z</time>
      </trkpt>
      <trkpt lat="42.86926" lon="0.08733">
        <ele>1790.24</ele>
        <time>2018-03-02T09:41:00Z</time>
      </trkpt>
      <trkpt lat="42.86908" lon="0.08734">
        <ele>1794.34</ele>
        <time>2018-03-02T09:42:00Z</time>
      </trkpt>
      <trkpt lat="42.86893" lon="0.0875">
        <ele>1800.4</ele>
        <time>2018-03-02T09:42:33Z</time>
      </trkpt>
      <trkpt lat="42.86876" lon="0.08763">
        <ele>1800.22</ele>
        <time>2018-03-02T09:43:13Z</time>
      </trkpt>
      <trkpt lat="42.86858" lon="0.08759">
        <ele>1817.22</ele>
        <time>2018-03-02T09:46:16Z</time>
      </trkpt>
      <trkpt lat="42.86849" lon="0.08781">
        <ele>1817.23</ele>
        <time>2018-03-02T09:46:40Z</time>
      </trkpt>
      <trkpt lat="42.86847" lon="0.08805">
        <ele>1815.51</ele>
        <time>2018-03-02T09:47:03Z</time>
      </trkpt>
      <trkpt lat="42.86839" lon="0.08782">
        <ele>1828.31</ele>
        <time>2018-03-02T09:48:05Z</time>
      </trkpt>
      <trkpt lat="42.86842" lon="0.08758">
        <ele>1829.5</ele>
        <time>2018-03-02T09:48:25Z</time>
      </trkpt>
      <trkpt lat="42.8685" lon="0.08736">
        <ele>1832.22</ele>
        <time>2018-03-02T09:48:46Z</time>
      </trkpt>
      <trkpt lat="42.86857" lon="0.08712">
        <ele>1835.52</ele>
        <time>2018-03-02T09:49:11Z</time>
      </trkpt>
      <trkpt lat="42.86865" lon="0.0869">
        <ele>1839.49</ele>
        <time>2018-03-02T09:49:37Z</time>
      </trkpt>
      <trkpt lat="42.86877" lon="0.08671">
        <ele>1839.54</ele>
        <time>2018-03-02T09:49:59Z</time>
      </trkpt>
      <trkpt lat="42.86859" lon="0.08668">
        <ele>1844.54</ele>
        <time>2018-03-02T09:50:59Z</time>
      </trkpt>
      <trkpt lat="42.86841" lon="0.08675">
        <ele>1851.5</ele>
        <time>2018-03-02T09:51:31Z</time>
      </trkpt>
      <trkpt lat="42.86826" lon="0.0869">
        <ele>1850.6</ele>
        <time>2018-03-02T09:52:03Z</time>
      </trkpt>
      <trkpt lat="42.86812" lon="0.08705">
        <ele>1855.52</ele>
        <time>2018-03-02T09:52:33Z</time>
      </trkpt>
      <trkpt lat="42.86793" lon="0.08711">
        <ele>1861.52</ele>
        <time>2018-03-02T09:53:21Z</time>
      </trkpt>
      <trkpt lat="42.86776" lon="0.08719">
        <ele>1870.23</ele>
        <time>2018-03-02T09:53:50Z</time>
      </trkpt>
      <trkpt lat="42.86757" lon="0.08722">
        <ele>1873.52</ele>
        <time>2018-03-02T09:54:15Z</time>
      </trkpt>
      <trkpt lat="42.86738" lon="0.08723">
        <ele>1880.25</ele>
        <time>2018-03-02T09:54:51Z</time>
      </trkpt>
      <trkpt lat="42.8672" lon="0.0872">
        <ele>1883.52</ele>
        <time>2018-03-02T09:55:43Z</time>
      </trkpt>
      <trkpt lat="42.86704" lon="0.08731">
        <ele>1891.4</ele>
        <time>2018-03-02T09:56:29Z</time>
      </trkpt>
      <trkpt lat="42.86687" lon="0.08742">
        <ele>1898.43</ele>
        <time>2018-03-02T09:56:54Z</time>
      </trkpt>
      <trkpt lat="42.8667" lon="0.08751">
        <ele>1899.5</ele>
        <time>2018-03-02T09:57:23Z</time>
      </trkpt>
      <trkpt lat="42.86654" lon="0.08763">
        <ele>1903.4</ele>
        <time>2018-03-02T09:58:40Z</time>
      </trkpt>
      <trkpt lat="42.86641" lon="0.08781">
        <ele>1905.24</ele>
        <time>2018-03-02T09:59:11Z</time>
      </trkpt>
      <trkpt lat="42.86632" lon="0.08802">
        <ele>1908.52</ele>
        <time>2018-03-02T09:59:37Z</time>
      </trkpt>
      <trkpt lat="42.86636" lon="0.08827">
        <ele>1912.52</ele>
        <time>2018-03-02T10:00:01Z</time>
      </trkpt>
      <trkpt lat="42.86648" lon="0.08846">
        <ele>1917.22</ele>
        <time>2018-03-02T10:00:24Z</time>
      </trkpt>
      <trkpt lat="42.86662" lon="0.08861">
        <ele>1921.22</ele>
        <time>2018-03-02T10:00:48Z</time>
      </trkpt>
      <trkpt lat="42.86657" lon="0.08885">
        <ele>1921.52</ele>
        <time>2018-03-02T10:01:13Z</time>
      </trkpt>
      <trkpt lat="42.86654" lon="0.0891">
        <ele>1922.52</ele>
        <time>2018-03-02T10:01:38Z</time>
      </trkpt>
      <trkpt lat="42.86652" lon="0.08935">
        <ele>1927.76</ele>
        <time>2018-03-02T10:02:04Z</time>
      </trkpt>
      <trkpt lat="42.86643" lon="0.08958">
        <ele>1932.51</ele>
        <time>2018-03-02T10:02:25Z</time>
      </trkpt>
      <trkpt lat="42.86634" lon="0.08981">
        <ele>1935.52</ele>
        <time>2018-03-02T10:02:51Z</time>
      </trkpt>
      <trkpt lat="42.86632" lon="0.09006">
        <ele>1935.51</ele>
        <time>2018-03-02T10:03:19Z</time>
      </trkpt>
      <trkpt lat="42.86631" lon="0.09031">
        <ele>1936.52</ele>
        <time>2018-03-02T10:03:40Z</time>
      </trkpt>
      <trkpt lat="42.86626" lon="0.09055">
        <ele>1938.5</ele>
        <time>2018-03-02T10:04:04Z</time>
      </trkpt>
      <trkpt lat="42.86622" lon="0.0908">
        <ele>1942.62</ele>
        <time>2018-03-02T10:04:41Z</time>
      </trkpt>
      <trkpt lat="42.8661" lon="0.09098">
        <ele>1947.19</ele>
        <time>2018-03-02T10:05:06Z</time>
      </trkpt>
      <trkpt lat="42.86592" lon="0.09089">
        <ele>1950.52</ele>
        <time>2018-03-02T10:05:30Z</time>
      </trkpt>
      <trkpt lat="42.8659" lon="0.09064">
        <ele>1953.21</ele>
        <time>2018-03-02T10:05:52Z</time>
      </trkpt>
      <trkpt lat="42.86587" lon="0.09038">
        <ele>1953.5</ele>
        <time>2018-03-02T10:10:22Z</time>
      </trkpt>
      <trkpt lat="42.86569" lon="0.0905">
        <ele>1956.52</ele>
        <time>2018-03-02T10:11:02Z</time>
      </trkpt>
      <trkpt lat="42.86554" lon="0.09063">
        <ele>1966.92</ele>
        <time>2018-03-02T10:11:33Z</time>
      </trkpt>
      <trkpt lat="42.86537" lon="0.09058">
        <ele>1975.19</ele>
        <time>2018-03-02T10:12:15Z</time>
      </trkpt>
      <trkpt lat="42.86525" lon="0.09039">
        <ele>1982.43</ele>
        <time>2018-03-02T10:13:12Z</time>
      </trkpt>
      <trkpt lat="42.86517" lon="0.09017">
        <ele>1993.52</ele>
        <time>2018-03-02T10:14:41Z</time>
      </trkpt>
      <trkpt lat="42.86505" lon="0.08995">
        <ele>2009.52</ele>
        <time>2018-03-02T10:16:37Z</time>
      </trkpt>
      <trkpt lat="42.86488" lon="0.08987">
        <ele>2018.49</ele>
        <time>2018-03-02T10:18:56Z</time>
      </trkpt>
      <trkpt lat="42.8647" lon="0.08993">
        <ele>2025.31</ele>
        <time>2018-03-02T10:19:23Z</time>
      </trkpt>
      <trkpt lat="42.86452" lon="0.08997">
        <ele>2028.52</ele>
        <time>2018-03-02T10:19:54Z</time>
      </trkpt>
      <trkpt lat="42.86434" lon="0.08999">
        <ele>2027.58</ele>
        <time>2018-03-02T10:20:22Z</time>
      </trkpt>
      <trkpt lat="42.86416" lon="0.09004">
        <ele>2036.52</ele>
        <time>2018-03-02T10:23:59Z</time>
      </trkpt>
      <trkpt lat="42.86398" lon="0.09013">
        <ele>2040.52</ele>
        <time>2018-03-02T10:24:30Z</time>
      </trkpt>
      <trkpt lat="42.86392" lon="0.08989">
        <ele>2046.22</ele>
        <time>2018-03-02T10:25:08Z</time>
      </trkpt>
      <trkpt lat="42.86388" lon="0.08965">
        <ele>2049.52</ele>
        <time>2018-03-02T10:25:42Z</time>
      </trkpt>
      <trkpt lat="42.86372" lon="0.08953">
        <ele>2052.6</ele>
        <time>2018-03-02T10:26:08Z</time>
      </trkpt>
      <trkpt lat="42.86358" lon="0.08938">
        <ele>2057.5</ele>
        <time>2018-03-02T10:26:38Z</time>
      </trkpt>
      <trkpt lat="42.86348" lon="0.08916">
        <ele>2064.19</ele>
        <time>2018-03-02T10:27:14Z</time>
      </trkpt>
      <trkpt lat="42.86329" lon="0.0892">
        <ele>2072.22</ele>
        <time>2018-03-02T10:28:20Z</time>
      </trkpt>
      <trkpt lat="42.86321" lon="0.08943">
        <ele>2087.22</ele>
        <time>2018-03-02T10:29:14Z</time>
      </trkpt>
      <trkpt lat="42.86303" lon="0.08944">
        <ele>2094.52</ele>
        <time>2018-03-02T10:30:40Z</time>
      </trkpt>
      <trkpt lat="42.86285" lon="0.08949">
        <ele>2099.52</ele>
        <time>2018-03-02T10:31:06Z</time>
      </trkpt>
      <trkpt lat="42.8627" lon="0.08963">
        <ele>2102.29</ele>
        <time>2018-03-02T10:31:31Z</time>
      </trkpt>
      <trkpt lat="42.86252" lon="0.08968">
        <ele>2101.52</ele>
        <time>2018-03-02T10:31:55Z</time>
      </trkpt>
      <trkpt lat="42.86235" lon="0.08977">
        <ele>2103.21</ele>
        <time>2018-03-02T10:32:19Z</time>
      </trkpt>
      <trkpt lat="42.86227" lon="0.09">
        <ele>2113.43</ele>
        <time>2018-03-02T10:32:53Z</time>
      </trkpt>
      <trkpt lat="42.86217" lon="0.09021">
        <ele>2117.52</ele>
        <time>2018-03-02T10:33:25Z</time>
      </trkpt>
      <trkpt lat="42.86207" lon="0.09042">
        <ele>2119.52</ele>
        <time>2018-03-02T10:33:48Z</time>
      </trkpt>
      <trkpt lat="42.86193" lon="0.09058">
        <ele>2121.55</ele>
        <time>2018-03-02T10:34:29Z</time>
      </trkpt>
      <trkpt lat="42.8618" lon="0.09076">
        <ele>2140.51</ele>
        <time>2018-03-02T10:43:59Z</time>
      </trkpt>
      <trkpt lat="42.86168" lon="0.09096">
        <ele>2138.55</ele>
        <time>2018-03-02T10:44:27Z</time>
      </trkpt>
      <trkpt lat="42.86156" lon="0.09116">
        <ele>2135.58</ele>
        <time>2018-03-02T10:44:42Z</time>
      </trkpt>
      <trkpt lat="42.86144" lon="0.09135">
        <ele>2134.82</ele>
        <time>2018-03-02T10:45:00Z</time>
      </trkpt>
      <trkpt lat="42.86133" lon="0.09156">
        <ele>2133.55</ele>
        <time>2018-03-02T10:45:20Z</time>
      </trkpt>
      <trkpt lat="42.86128" lon="0.0918">
        <ele>2130.62</ele>
        <time>2018-03-02T10:45:35Z</time>
      </trkpt>
      <trkpt lat="42.86121" lon="0.09204">
        <ele>2134.52</ele>
        <time>2018-03-02T10:45:51Z</time>
      </trkpt>
      <trkpt lat="42.86108" lon="0.09222">
        <ele>2136.52</ele>
        <time>2018-03-02T10:46:09Z</time>
      </trkpt>
      <trkpt lat="42.86095" lon="0.09239">
        <ele>2136.73</ele>
        <time>2018-03-02T10:46:27Z</time>
      </trkpt>
      <trkpt lat="42.86081" lon="0.09256">
        <ele>2135.23</ele>
        <time>2018-03-02T10:46:45Z</time>
      </trkpt>
      <trkpt lat="42.86068" lon="0.09274">
        <ele>2136.52</ele>
        <time>2018-03-02T10:47:01Z</time>
      </trkpt>
      <trkpt lat="42.86054" lon="0.09291">
        <ele>2137.22</ele>
        <time>2018-03-02T10:47:21Z</time>
      </trkpt>
      <trkpt lat="42.86044" lon="0.09313">
        <ele>2133.61</ele>
        <time>2018-03-02T10:47:40Z</time>
      </trkpt>
      <trkpt lat="42.86035" lon="0.09335">
        <ele>2132.73</ele>
        <time>2018-03-02T10:47:58Z</time>
      </trkpt>
      <trkpt lat="42.86025" lon="0.09356">
        <ele>2132.23</ele>
        <time>2018-03-02T10:48:19Z</time>
      </trkpt>
      <trkpt lat="42.86013" lon="0.09374">
        <ele>2125.43</ele>
        <time>2018-03-02T10:49:09Z</time>
      </trkpt>
      <trkpt lat="42.86007" lon="0.09398">
        <ele>2131.52</ele>
        <time>2018-03-02T10:49:31Z</time>
      </trkpt>
      <trkpt lat="42.86004" lon="0.09423">
        <ele>2132.12</ele>
        <time>2018-03-02T10:50:01Z</time>
      </trkpt>
      <trkpt lat="42.86" lon="0.09447">
        <ele>2133.21</ele>
        <time>2018-03-02T10:50:57Z</time>
      </trkpt>
      <trkpt lat="42.86003" lon="0.09471">
        <ele>2133.51</ele>
        <time>2018-03-02T10:51:51Z</time>
      </trkpt>
      <trkpt lat="42.86012" lon="0.09493">
        <ele>2141.52</ele>
        <time>2018-03-02T10:52:44Z</time>
      </trkpt>
      <trkpt lat="42.86016" lon="0.09518">
        <ele>2154.22</ele>
        <time>2018-03-02T10:53:28Z</time>
      </trkpt>
      <trkpt lat="42.86034" lon="0.09524">
        <ele>2153.52</ele>
        <time>2018-03-02T10:54:33Z</time>
      </trkpt>
      <trkpt lat="42.86024" lon="0.09545">
        <ele>2164.22</ele>
        <time>2018-03-02T10:55:14Z</time>
      </trkpt>
      <trkpt lat="42.86031" lon="0.09567">
        <ele>2174.13</ele>
        <time>2018-03-02T10:58:18Z</time>
      </trkpt>
      <trkpt lat="42.86023" lon="0.0959">
        <ele>2180.44</ele>
        <time>2018-03-02T10:58:56Z</time>
      </trkpt>
      <trkpt lat="42.86015" lon="0.09612">
        <ele>2186.52</ele>
        <time>2018-03-02T10:59:27Z</time>
      </trkpt>
      <trkpt lat="42.86007" lon="0.09633">
        <ele>2188.52</ele>
        <time>2018-03-02T10:59:59Z</time>
      </trkpt>
      <trkpt lat="42.86001" lon="0.09658">
        <ele>2187.53</ele>
        <time>2018-03-02T11:00:21Z</time>
      </trkpt>
      <trkpt lat="42.85997" lon="0.09682">
        <ele>2191.2</ele>
        <time>2018-03-02T11:00:42Z</time>
      </trkpt>
      <trkpt lat="42.86" lon="0.09708">
        <ele>2195.22</ele>
        <time>2018-03-02T11:01:15Z</time>
      </trkpt>
      <trkpt lat="42.86004" lon="0.09733">
        <ele>2197.46</ele>
        <time>2018-03-02T11:01:54Z</time>
      </trkpt>
      <trkpt lat="42.86002" lon="0.09758">
        <ele>2196.52</ele>
        <time>2018-03-02T11:02:21Z</time>
      </trkpt>
      <trkpt lat="42.85991" lon="0.09777">
        <ele>2195.53</ele>
        <time>2018-03-02T11:02:51Z</time>
      </trkpt>
      <trkpt lat="42.85979" lon="0.09797">
        <ele>2191.81</ele>
        <time>2018-03-02T11:03:30Z</time>
      </trkpt>
      <trkpt lat="42.85978" lon="0.09822">
        <ele>2195.64</ele>
        <time>2018-03-02T11:04:36Z</time>
      </trkpt>
      <trkpt lat="42.85977" lon="0.09848">
        <ele>2206.22</ele>
        <time>2018-03-02T11:05:33Z</time>
      </trkpt>
      <trkpt lat="42.85974" lon="0.09872">
        <ele>2209.52</ele>
        <time>2018-03-02T11:07:04Z</time>
      </trkpt>
      <trkpt lat="42.85975" lon="0.09897">
        <ele>2210.52</ele>
        <time>2018-03-02T11:07:20Z</time>
      </trkpt>
      <trkpt lat="42.85963" lon="0.09916">
        <ele>2214.52</ele>
        <time>2018-03-02T11:07:46Z</time>
      </trkpt>
      <trkpt lat="42.85962" lon="0.09941">
        <ele>2223.51</ele>
        <time>2018-03-02T11:08:26Z</time>
      </trkpt>
      <trkpt lat="42.85949" lon="0.09958">
        <ele>2227.52</ele>
        <time>2018-03-02T11:09:11Z</time>
      </trkpt>
      <trkpt lat="42.85932" lon="0.09969">
        <ele>2228.49</ele>
        <time>2018-03-02T11:10:03Z</time>
      </trkpt>
      <trkpt lat="42.85916" lon="0.0998">
        <ele>2231.51</ele>
        <time>2018-03-02T11:10:26Z</time>
      </trkpt>
      <trkpt lat="42.85898" lon="0.09981">
        <ele>2238.51</ele>
        <time>2018-03-02T11:10:50Z</time>
      </trkpt>
      <trkpt lat="42.85882" lon="0.09992">
        <ele>2239.81</ele>
        <time>2018-03-02T11:12:59Z</time>
      </trkpt>
      <trkpt lat="42.85866" lon="0.10005">
        <ele>2239.52</ele>
        <time>2018-03-02T11:13:15Z</time>
      </trkpt>
      <trkpt lat="42.85849" lon="0.10014">
        <ele>2238.62</ele>
        <time>2018-03-02T11:13:33Z</time>
      </trkpt>
      <trkpt lat="42.85833" lon="0.10028">
        <ele>2236.85</ele>
        <time>2018-03-02T11:13:50Z</time>
      </trkpt>
      <trkpt lat="42.8582" lon="0.10045">
        <ele>2235.54</ele>
        <time>2018-03-02T11:14:18Z</time>
      </trkpt>
      <trkpt lat="42.85806" lon="0.10063">
        <ele>2236.5</ele>
        <time>2018-03-02T11:14:35Z</time>
      </trkpt>
      <trkpt lat="42.858" lon="0.10086">
        <ele>2236.61</ele>
        <time>2018-03-02T11:14:56Z</time>
      </trkpt>
      <trkpt lat="42.85789" lon="0.10106">
        <ele>2237.79</ele>
        <time>2018-03-02T11:15:15Z</time>
      </trkpt>
      <trkpt lat="42.85779" lon="0.10128">
        <ele>2239.52</ele>
        <time>2018-03-02T11:15:49Z</time>
      </trkpt>
      <trkpt lat="42.85783" lon="0.10152">
        <ele>2241.43</ele>
        <time>2018-03-02T11:16:25Z</time>
      </trkpt>
      <trkpt lat="42.85774" lon="0.10175">
        <ele>2243.81</ele>
        <time>2018-03-02T11:16:49Z</time>
      </trkpt>
      <trkpt lat="42.85765" lon="0.10197">
        <ele>2245.52</ele>
        <time>2018-03-02T11:17:15Z</time>
      </trkpt>
      <trkpt lat="42.85755" lon="0.10219">
        <ele>2243.79</ele>
        <time>2018-03-02T11:17:45Z</time>
      </trkpt>
      <trkpt lat="42.85755" lon="0.10243">
        <ele>2251.52</ele>
        <time>2018-03-02T11:18:12Z</time>
      </trkpt>
      <trkpt lat="42.85741" lon="0.10259">
        <ele>2255.43</ele>
        <time>2018-03-02T11:18:36Z</time>
      </trkpt>
      <trkpt lat="42.85734" lon="0.10282">
        <ele>2256.43</ele>
        <time>2018-03-02T11:19:05Z</time>
      </trkpt>
      <trkpt lat="42.85725" lon="0.10303">
        <ele>2259.82</ele>
        <time>2018-03-02T11:19:34Z</time>
      </trkpt>
      <trkpt lat="42.85717" lon="0.10326">
        <ele>2258.52</ele>
        <time>2018-03-02T11:21:13Z</time>
      </trkpt>
      <trkpt lat="42.85708" lon="0.10347">
        <ele>2263.43</ele>
        <time>2018-03-02T11:21:41Z</time>
      </trkpt>
      <trkpt lat="42.85709" lon="0.10372">
        <ele>2271.21</ele>
        <time>2018-03-02T11:22:29Z</time>
      </trkpt>
      <trkpt lat="42.85696" lon="0.10391">
        <ele>2272.53</ele>
        <time>2018-03-02T11:22:59Z</time>
      </trkpt>
      <trkpt lat="42.85681" lon="0.10404">
        <ele>2276.31</ele>
        <time>2018-03-02T11:23:34Z</time>
      </trkpt>
      <trkpt lat="42.85662" lon="0.10407">
        <ele>2279.22</ele>
        <time>2018-03-02T11:24:11Z</time>
      </trkpt>
      <trkpt lat="42.85644" lon="0.10409">
        <ele>2281.65</ele>
        <time>2018-03-02T11:24:53Z</time>
      </trkpt>
      <trkpt lat="42.85625" lon="0.10409">
        <ele>2288.22</ele>
        <time>2018-03-02T11:25:27Z</time>
      </trkpt>
      <trkpt lat="42.85607" lon="0.10407">
        <ele>2294.21</ele>
        <time>2018-03-02T11:25:58Z</time>
      </trkpt>
      <trkpt lat="42.85589" lon="0.10408">
        <ele>2304.52</ele>
        <time>2018-03-02T11:26:28Z</time>
      </trkpt>
      <trkpt lat="42.85573" lon="0.10419">
        <ele>2312.19</ele>
        <time>2018-03-02T11:27:40Z</time>
      </trkpt>
      <trkpt lat="42.85555" lon="0.10429">
        <ele>2327.21</ele>
        <time>2018-03-02T11:28:55Z</time>
      </trkpt>
      <trkpt lat="42.8554" lon="0.10443">
        <ele>2331.5</ele>
        <time>2018-03-02T11:29:35Z</time>
      </trkpt>
      <trkpt lat="42.85523" lon="0.1045">
        <ele>2331.52</ele>
        <time>2018-03-02T11:30:14Z</time>
      </trkpt>
      <trkpt lat="42.85512" lon="0.10472">
        <ele>2336.12</ele>
        <time>2018-03-02T11:31:25Z</time>
      </trkpt>
      <trkpt lat="42.85499" lon="0.1049">
        <ele>2340.51</ele>
        <time>2018-03-02T11:32:06Z</time>
      </trkpt>
      <trkpt lat="42.85485" lon="0.1051">
        <ele>2343.92</ele>
        <time>2018-03-02T11:32:48Z</time>
      </trkpt>
      <trkpt lat="42.8547" lon="0.10527">
        <ele>2348.52</ele>
        <time>2018-03-02T11:33:19Z</time>
      </trkpt>
      <trkpt lat="42.85453" lon="0.10535">
        <ele>2351.46</ele>
        <time>2018-03-02T11:33:51Z</time>
      </trkpt>
      <trkpt lat="42.85444" lon="0.10562">
        <ele>2350.16</ele>
        <time>2018-03-02T11:34:46Z</time>
      </trkpt>
      <trkpt lat="42.85457" lon="0.10546">
        <ele>2360.82</ele>
        <time>2018-03-02T11:36:45Z</time>
      </trkpt>
      <trkpt lat="42.85475" lon="0.10547">
        <ele>2366.52</ele>
        <time>2018-03-02T11:37:19Z</time>
      </trkpt>
      <trkpt lat="42.85493" lon="0.10544">
        <ele>2371.81</ele>
        <time>2018-03-02T11:38:14Z</time>
      </trkpt>
      <trkpt lat="42.85496" lon="0.10568">
        <ele>2379.52</ele>
        <time>2018-03-02T11:39:59Z</time>
      </trkpt>
      <trkpt lat="42.85508" lon="0.10587">
        <ele>2384.82</ele>
        <time>2018-03-02T11:40:37Z</time>
      </trkpt>
      <trkpt lat="42.85499" lon="0.10609">
        <ele>2385.58</ele>
        <time>2018-03-02T11:51:45Z</time>
      </trkpt>
      <trkpt lat="42.85492" lon="0.10632">
        <ele>2382.51</ele>
        <time>2018-03-02T11:52:39Z</time>
      </trkpt>
      <trkpt lat="42.85485" lon="0.10655">
        <ele>2387.21</ele>
        <time>2018-03-02T11:53:06Z</time>
      </trkpt>
      <trkpt lat="42.85485" lon="0.1068">
        <ele>2396.22</ele>
        <time>2018-03-02T11:54:03Z</time>
      </trkpt>
      <trkpt lat="42.85472" lon="0.10698">
        <ele>2399.52</ele>
        <time>2018-03-02T11:54:54Z</time>
      </trkpt>
      <trkpt lat="42.85459" lon="0.10714">
        <ele>2404.52</ele>
        <time>2018-03-02T11:55:51Z</time>
      </trkpt>
      <trkpt lat="42.85445" lon="0.10731">
        <ele>2406.31</ele>
        <time>2018-03-02T11:56:10Z</time>
      </trkpt>
      <trkpt lat="42.8543" lon="0.10746">
        <ele>2410.22</ele>
        <time>2018-03-02T11:57:01Z</time>
      </trkpt>
      <trkpt lat="42.85414" lon="0.10758">
        <ele>2416.4</ele>
        <time>2018-03-02T11:57:24Z</time>
      </trkpt>
      <trkpt lat="42.85397" lon="0.1077">
        <ele>2423.64</ele>
        <time>2018-03-02T11:58:30Z</time>
      </trkpt>
      <trkpt lat="42.85383" lon="0.10785">
        <ele>2425.79</ele>
        <time>2018-03-02T11:59:24Z</time>
      </trkpt>
      <trkpt lat="42.85372" lon="0.10805">
        <ele>2430.49</ele>
        <time>2018-03-02T11:59:47Z</time>
      </trkpt>
      <trkpt lat="42.85364" lon="0.10828">
        <ele>2433.8</ele>
        <time>2018-03-02T12:00:13Z</time>
      </trkpt>
      <trkpt lat="42.85357" lon="0.10851">
        <ele>2438.73</ele>
        <time>2018-03-02T12:00:43Z</time>
      </trkpt>
      <trkpt lat="42.85355" lon="0.10876">
        <ele>2440.81</ele>
        <time>2018-03-02T12:01:08Z</time>
      </trkpt>
      <trkpt lat="42.85352" lon="0.10901">
        <ele>2442.52</ele>
        <time>2018-03-02T12:01:36Z</time>
      </trkpt>
      <trkpt lat="42.85345" lon="0.10923">
        <ele>2443.51</ele>
        <time>2018-03-02T12:02:00Z</time>
      </trkpt>
      <trkpt lat="42.85339" lon="0.10947">
        <ele>2444.82</ele>
        <time>2018-03-02T12:02:23Z</time>
      </trkpt>
      <trkpt lat="42.8533" lon="0.10971">
        <ele>2446.23</ele>
        <time>2018-03-02T12:02:55Z</time>
      </trkpt>
      <trkpt lat="42.8532" lon="0.10992">
        <ele>2451.79</ele>
        <time>2018-03-02T12:03:26Z</time>
      </trkpt>
      <trkpt lat="42.85311" lon="0.11012">
        <ele>2455.22</ele>
        <time>2018-03-02T12:04:12Z</time>
      </trkpt>
      <trkpt lat="42.85308" lon="0.11037">
        <ele>2462.43</ele>
        <time>2018-03-02T12:04:49Z</time>
      </trkpt>
      <trkpt lat="42.85314" lon="0.11061">
        <ele>2469.5</ele>
        <time>2018-03-02T12:05:39Z</time>
      </trkpt>
      <trkpt lat="42.85313" lon="0.11086">
        <ele>2479.19</ele>
        <time>2018-03-02T12:06:27Z</time>
      </trkpt>
      <trkpt lat="42.85316" lon="0.11111">
        <ele>2487.49</ele>
        <time>2018-03-02T12:06:58Z</time>
      </trkpt>
      <trkpt lat="42.85307" lon="0.11132">
        <ele>2488.5</ele>
        <time>2018-03-02T12:07:26Z</time>
      </trkpt>
      <trkpt lat="42.85306" lon="0.11156">
        <ele>2494.42</ele>
        <time>2018-03-02T12:10:21Z</time>
      </trkpt>
      <trkpt lat="42.85302" lon="0.11181">
        <ele>2503.22</ele>
        <time>2018-03-02T12:12:30Z</time>
      </trkpt>
      <trkpt lat="42.85286" lon="0.11193">
        <ele>2504.61</ele>
        <time>2018-03-02T12:13:09Z</time>
      </trkpt>
      <trkpt lat="42.85303" lon="0.11204">
        <ele>2513.52</ele>
        <time>2018-03-02T12:14:27Z</time>
      </trkpt>
      <trkpt lat="42.85293" lon="0.11225">
        <ele>2520.81</ele>
        <time>2018-03-02T12:15:12Z</time>
      </trkpt>
      <trkpt lat="42.85277" lon="0.11238">
        <ele>2524.52</ele>
        <time>2018-03-02T12:15:46Z</time>
      </trkpt>
      <trkpt lat="42.85264" lon="0.11255">
        <ele>2539.89</ele>
        <time>2018-03-02T12:18:07Z</time>
      </trkpt>
      <trkpt lat="42.85259" lon="0.1128">
        <ele>2543.49</ele>
        <time>2018-03-02T12:18:48Z</time>
      </trkpt>
      <trkpt lat="42.85272" lon="0.11298">
        <ele>2552.5</ele>
        <time>2018-03-02T12:20:16Z</time>
      </trkpt>
      <trkpt lat="42.85291" lon="0.11297">
        <ele>2558.52</ele>
        <time>2018-03-02T12:21:43Z</time>
      </trkpt>
      <trkpt lat="42.85294" lon="0.11321">
        <ele>2549.85</ele>
        <time>2018-03-02T12:43:01Z</time>
      </trkpt>
      <trkpt lat="42.85312" lon="0.11327">
        <ele>2547.61</ele>
        <time>2018-03-02T12:43:08Z</time>
      </trkpt>
      <trkpt lat="42.8533" lon="0.11335">
        <ele>2546.82</ele>
        <time>2018-03-02T12:43:15Z</time>
      </trkpt>
      <trkpt lat="42.85345" lon="0.1135">
        <ele>2538.65</ele>
        <time>2018-03-02T12:43:26Z</time>
      </trkpt>
      <trkpt lat="42.8536" lon="0.11331">
        <ele>2532.52</ele>
        <time>2018-03-02T12:46:43Z</time>
      </trkpt>
      <trkpt lat="42.85379" lon="0.11335">
        <ele>2528.59</ele>
        <time>2018-03-02T12:46:49Z</time>
      </trkpt>
      <trkpt lat="42.85396" lon="0.1135">
        <ele>2524.88</ele>
        <time>2018-03-02T12:46:54Z</time>
      </trkpt>
      <trkpt lat="42.85408" lon="0.11331">
        <ele>2515.83</ele>
        <time>2018-03-02T12:47:08Z</time>
      </trkpt>
      <trkpt lat="42.85424" lon="0.11316">
        <ele>2505.85</ele>
        <time>2018-03-02T12:49:13Z</time>
      </trkpt>
      <trkpt lat="42.85432" lon="0.11292">
        <ele>2503.61</ele>
        <time>2018-03-02T12:49:19Z</time>
      </trkpt>
      <trkpt lat="42.85455" lon="0.11297">
        <ele>2499.88</ele>
        <time>2018-03-02T12:49:26Z</time>
      </trkpt>
      <trkpt lat="42.85475" lon="0.11303">
        <ele>2495.23</ele>
        <time>2018-03-02T12:49:30Z</time>
      </trkpt>
      <trkpt lat="42.85494" lon="0.11302">
        <ele>2492.93</ele>
        <time>2018-03-02T12:49:33Z</time>
      </trkpt>
      <trkpt lat="42.85485" lon="0.11281">
        <ele>2468.55</ele>
        <time>2018-03-02T12:50:32Z</time>
      </trkpt>
      <trkpt lat="42.85489" lon="0.11254">
        <ele>2462.52</ele>
        <time>2018-03-02T12:54:08Z</time>
      </trkpt>
      <trkpt lat="42.85499" lon="0.1123">
        <ele>2464.43</ele>
        <time>2018-03-02T12:54:15Z</time>
      </trkpt>
      <trkpt lat="42.85517" lon="0.11223">
        <ele>2461.53</ele>
        <time>2018-03-02T12:54:28Z</time>
      </trkpt>
      <trkpt lat="42.85539" lon="0.11232">
        <ele>2457.93</ele>
        <time>2018-03-02T12:54:33Z</time>
      </trkpt>
      <trkpt lat="42.85555" lon="0.1125">
        <ele>2453.59</ele>
        <time>2018-03-02T12:54:38Z</time>
      </trkpt>
      <trkpt lat="42.85565" lon="0.11229">
        <ele>2448.12</ele>
        <time>2018-03-02T12:54:54Z</time>
      </trkpt>
      <trkpt lat="42.8558" lon="0.11213">
        <ele>2444.62</ele>
        <time>2018-03-02T12:55:01Z</time>
      </trkpt>
      <trkpt lat="42.85596" lon="0.11201">
        <ele>2437.92</ele>
        <time>2018-03-02T12:55:12Z</time>
      </trkpt>
      <trkpt lat="42.85603" lon="0.11227">
        <ele>2433.95</ele>
        <time>2018-03-02T12:55:17Z</time>
      </trkpt>
      <trkpt lat="42.85615" lon="0.11247">
        <ele>2426.64</ele>
        <time>2018-03-02T12:55:26Z</time>
      </trkpt>
      <trkpt lat="42.85635" lon="0.11238">
        <ele>2424.57</ele>
        <time>2018-03-02T12:55:32Z</time>
      </trkpt>
      <trkpt lat="42.85655" lon="0.11231">
        <ele>2419.27</ele>
        <time>2018-03-02T12:55:36Z</time>
      </trkpt>
      <trkpt lat="42.85672" lon="0.11246">
        <ele>2401.95</ele>
        <time>2018-03-02T12:56:23Z</time>
      </trkpt>
      <trkpt lat="42.8569" lon="0.11253">
        <ele>2393.07</ele>
        <time>2018-03-02T12:56:30Z</time>
      </trkpt>
      <trkpt lat="42.85708" lon="0.11256">
        <ele>2386.34</ele>
        <time>2018-03-02T12:56:35Z</time>
      </trkpt>
      <trkpt lat="42.85727" lon="0.11265">
        <ele>2377.77</ele>
        <time>2018-03-02T12:56:43Z</time>
      </trkpt>
      <trkpt lat="42.85741" lon="0.11287">
        <ele>2366.39</ele>
        <time>2018-03-02T12:56:48Z</time>
      </trkpt>
      <trkpt lat="42.85727" lon="0.11308">
        <ele>2349.91</ele>
        <time>2018-03-02T12:58:26Z</time>
      </trkpt>
      <trkpt lat="42.85731" lon="0.11334">
        <ele>2346.64</ele>
        <time>2018-03-02T12:58:31Z</time>
      </trkpt>
      <trkpt lat="42.85741" lon="0.11357">
        <ele>2343.92</ele>
        <time>2018-03-02T12:58:35Z</time>
      </trkpt>
      <trkpt lat="42.85753" lon="0.1138">
        <ele>2339.95</ele>
        <time>2018-03-02T12:58:39Z</time>
      </trkpt>
      <trkpt lat="42.85772" lon="0.11393">
        <ele>2331.55</ele>
        <time>2018-03-02T12:58:45Z</time>
      </trkpt>
      <trkpt lat="42.85786" lon="0.11411">
        <ele>2320.27</ele>
        <time>2018-03-02T12:58:52Z</time>
      </trkpt>
      <trkpt lat="42.85797" lon="0.11432">
        <ele>2312.57</ele>
        <time>2018-03-02T12:58:59Z</time>
      </trkpt>
      <trkpt lat="42.85816" lon="0.11438">
        <ele>2310.85</ele>
        <time>2018-03-02T12:59:02Z</time>
      </trkpt>
      <trkpt lat="42.85837" lon="0.11451">
        <ele>2307.95</ele>
        <time>2018-03-02T12:59:05Z</time>
      </trkpt>
      <trkpt lat="42.85852" lon="0.11466">
        <ele>2304.01</ele>
        <time>2018-03-02T12:59:09Z</time>
      </trkpt>
      <trkpt lat="42.85832" lon="0.11456">
        <ele>2287.85</ele>
        <time>2018-03-02T12:59:44Z</time>
      </trkpt>
      <trkpt lat="42.85831" lon="0.11481">
        <ele>2285.52</ele>
        <time>2018-03-02T12:59:53Z</time>
      </trkpt>
      <trkpt lat="42.85849" lon="0.11492">
        <ele>2287.73</ele>
        <time>2018-03-02T13:00:02Z</time>
      </trkpt>
      <trkpt lat="42.85867" lon="0.11485">
        <ele>2282.55</ele>
        <time>2018-03-02T13:02:42Z</time>
      </trkpt>
      <trkpt lat="42.85884" lon="0.11471">
        <ele>2280.54</ele>
        <time>2018-03-02T13:02:52Z</time>
      </trkpt>
      <trkpt lat="42.85897" lon="0.11453">
        <ele>2278.55</ele>
        <time>2018-03-02T13:03:03Z</time>
      </trkpt>
      <trkpt lat="42.85914" lon="0.11438">
        <ele>2278.52</ele>
        <time>2018-03-02T13:03:13Z</time>
      </trkpt>
      <trkpt lat="42.85931" lon="0.11428">
        <ele>2278.52</ele>
        <time>2018-03-02T13:03:19Z</time>
      </trkpt>
      <trkpt lat="42.85949" lon="0.11419">
        <ele>2276.85</ele>
        <time>2018-03-02T13:03:26Z</time>
      </trkpt>
      <trkpt lat="42.8597" lon="0.11416">
        <ele>2277.5</ele>
        <time>2018-03-02T13:03:30Z</time>
      </trkpt>
      <trkpt lat="42.8599" lon="0.11406">
        <ele>2275.82</ele>
        <time>2018-03-02T13:03:36Z</time>
      </trkpt>
      <trkpt lat="42.86009" lon="0.11399">
        <ele>2272.55</ele>
        <time>2018-03-02T13:03:45Z</time>
      </trkpt>
      <trkpt lat="42.86029" lon="0.11391">
        <ele>2269.62</ele>
        <time>2018-03-02T13:03:51Z</time>
      </trkpt>
      <trkpt lat="42.86048" lon="0.11386">
        <ele>2267.83</ele>
        <time>2018-03-02T13:03:55Z</time>
      </trkpt>
      <trkpt lat="42.86069" lon="0.11392">
        <ele>2267.52</ele>
        <time>2018-03-02T13:03:59Z</time>
      </trkpt>
      <trkpt lat="42.86089" lon="0.11399">
        <ele>2265.64</ele>
        <time>2018-03-02T13:04:02Z</time>
      </trkpt>
      <trkpt lat="42.8611" lon="0.11404">
        <ele>2264.61</ele>
        <time>2018-03-02T13:04:06Z</time>
      </trkpt>
      <trkpt lat="42.86132" lon="0.11413">
        <ele>2263.61</ele>
        <time>2018-03-02T13:04:11Z</time>
      </trkpt>
      <trkpt lat="42.86149" lon="0.11418">
        <ele>2263.52</ele>
        <time>2018-03-02T13:04:15Z</time>
      </trkpt>
      <trkpt lat="42.8617" lon="0.11422">
        <ele>2262.61</ele>
        <time>2018-03-02T13:04:20Z</time>
      </trkpt>
      <trkpt lat="42.86188" lon="0.1142">
        <ele>2255.56</ele>
        <time>2018-03-02T13:04:46Z</time>
      </trkpt>
      <trkpt lat="42.86207" lon="0.11421">
        <ele>2254.73</ele>
        <time>2018-03-02T13:04:56Z</time>
      </trkpt>
      <trkpt lat="42.86225" lon="0.11421">
        <ele>2251.47</ele>
        <time>2018-03-02T13:06:21Z</time>
      </trkpt>
      <trkpt lat="42.86243" lon="0.11425">
        <ele>2255.43</ele>
        <time>2018-03-02T13:06:36Z</time>
      </trkpt>
      <trkpt lat="42.86262" lon="0.11418">
        <ele>2255.64</ele>
        <time>2018-03-02T13:08:43Z</time>
      </trkpt>
      <trkpt lat="42.86283" lon="0.11414">
        <ele>2254.55</ele>
        <time>2018-03-02T13:08:49Z</time>
      </trkpt>
      <trkpt lat="42.863" lon="0.11404">
        <ele>2253.55</ele>
        <time>2018-03-02T13:08:57Z</time>
      </trkpt>
      <trkpt lat="42.86318" lon="0.11395">
        <ele>2251.55</ele>
        <time>2018-03-02T13:09:10Z</time>
      </trkpt>
      <trkpt lat="42.86338" lon="0.11387">
        <ele>2248.61</ele>
        <time>2018-03-02T13:09:19Z</time>
      </trkpt>
      <trkpt lat="42.86358" lon="0.11397">
        <ele>2249.43</ele>
        <time>2018-03-02T13:09:22Z</time>
      </trkpt>
      <trkpt lat="42.86375" lon="0.11411">
        <ele>2249.52</ele>
        <time>2018-03-02T13:09:25Z</time>
      </trkpt>
      <trkpt lat="42.86393" lon="0.11422">
        <ele>2250.52</ele>
        <time>2018-03-02T13:09:30Z</time>
      </trkpt>
      <trkpt lat="42.86408" lon="0.11438">
        <ele>2248.61</ele>
        <time>2018-03-02T13:09:36Z</time>
      </trkpt>
      <trkpt lat="42.86425" lon="0.11446">
        <ele>2245.64</ele>
        <time>2018-03-02T13:09:44Z</time>
      </trkpt>
      <trkpt lat="42.86445" lon="0.1145">
        <ele>2245.52</ele>
        <time>2018-03-02T13:09:48Z</time>
      </trkpt>
      <trkpt lat="42.86467" lon="0.11444">
        <ele>2242.94</ele>
        <time>2018-03-02T13:09:51Z</time>
      </trkpt>
      <trkpt lat="42.86486" lon="0.11442">
        <ele>2240.86</ele>
        <time>2018-03-02T13:09:54Z</time>
      </trkpt>
      <trkpt lat="42.86505" lon="0.11443">
        <ele>2238.62</ele>
        <time>2018-03-02T13:09:58Z</time>
      </trkpt>
      <trkpt lat="42.86525" lon="0.11437">
        <ele>2232.53</ele>
        <time>2018-03-02T13:10:45Z</time>
      </trkpt>
      <trkpt lat="42.86543" lon="0.11425">
        <ele>2230.53</ele>
        <time>2018-03-02T13:10:53Z</time>
      </trkpt>
      <trkpt lat="42.86559" lon="0.1141">
        <ele>2227.61</ele>
        <time>2018-03-02T13:11:04Z</time>
      </trkpt>
      <trkpt lat="42.86567" lon="0.11384">
        <ele>2223.95</ele>
        <time>2018-03-02T13:11:12Z</time>
      </trkpt>
      <trkpt lat="42.86578" lon="0.11358">
        <ele>2220.92</ele>
        <time>2018-03-02T13:11:17Z</time>
      </trkpt>
      <trkpt lat="42.86594" lon="0.11342">
        <ele>2219.53</ele>
        <time>2018-03-02T13:11:22Z</time>
      </trkpt>
      <trkpt lat="42.8661" lon="0.11325">
        <ele>2217.85</ele>
        <time>2018-03-02T13:11:28Z</time>
      </trkpt>
      <trkpt lat="42.86626" lon="0.11311">
        <ele>2216.53</ele>
        <time>2018-03-02T13:11:32Z</time>
      </trkpt>
      <trkpt lat="42.86643" lon="0.11301">
        <ele>2214.85</ele>
        <time>2018-03-02T13:11:35Z</time>
      </trkpt>
      <trkpt lat="42.86664" lon="0.11298">
        <ele>2215.22</ele>
        <time>2018-03-02T13:11:39Z</time>
      </trkpt>
      <trkpt lat="42.86682" lon="0.11301">
        <ele>2215.52</ele>
        <time>2018-03-02T13:11:46Z</time>
      </trkpt>
      <trkpt lat="42.86702" lon="0.11295">
        <ele>2215.43</ele>
        <time>2018-03-02T13:11:57Z</time>
      </trkpt>
      <trkpt lat="42.86721" lon="0.113">
        <ele>2214.53</ele>
        <time>2018-03-02T13:12:02Z</time>
      </trkpt>
      <trkpt lat="42.86739" lon="0.11303">
        <ele>2207.52</ele>
        <time>2018-03-02T13:12:33Z</time>
      </trkpt>
      <trkpt lat="42.86757" lon="0.11299">
        <ele>2206.61</ele>
        <time>2018-03-02T13:12:40Z</time>
      </trkpt>
      <trkpt lat="42.86778" lon="0.11295">
        <ele>2204.53</ele>
        <time>2018-03-02T13:12:49Z</time>
      </trkpt>
      <trkpt lat="42.86799" lon="0.11295">
        <ele>2202.91</ele>
        <time>2018-03-02T13:12:55Z</time>
      </trkpt>
      <trkpt lat="42.8682" lon="0.11293">
        <ele>2202.53</ele>
        <time>2018-03-02T13:12:59Z</time>
      </trkpt>
      <trkpt lat="42.86841" lon="0.11297">
        <ele>2200.62</ele>
        <time>2018-03-02T13:13:03Z</time>
      </trkpt>
      <trkpt lat="42.86862" lon="0.11307">
        <ele>2199.63</ele>
        <time>2018-03-02T13:13:07Z</time>
      </trkpt>
      <trkpt lat="42.86882" lon="0.11313">
        <ele>2198.55</ele>
        <time>2018-03-02T13:13:10Z</time>
      </trkpt>
      <trkpt lat="42.86903" lon="0.1132">
        <ele>2195.92</ele>
        <time>2018-03-02T13:13:14Z</time>
      </trkpt>
      <trkpt lat="42.86922" lon="0.11329">
        <ele>2192.83</ele>
        <time>2018-03-02T13:13:19Z</time>
      </trkpt>
      <trkpt lat="42.86939" lon="0.1134">
        <ele>2188.52</ele>
        <time>2018-03-02T13:14:04Z</time>
      </trkpt>
      <trkpt lat="42.86958" lon="0.11347">
        <ele>2186.62</ele>
        <time>2018-03-02T13:14:10Z</time>
      </trkpt>
      <trkpt lat="42.86976" lon="0.11353">
        <ele>2185.53</ele>
        <time>2018-03-02T13:14:15Z</time>
      </trkpt>
      <trkpt lat="42.86996" lon="0.11358">
        <ele>2183.85</ele>
        <time>2018-03-02T13:14:20Z</time>
      </trkpt>
      <trkpt lat="42.87013" lon="0.11364">
        <ele>2181.83</ele>
        <time>2018-03-02T13:14:26Z</time>
      </trkpt>
      <trkpt lat="42.87032" lon="0.11366">
        <ele>2178.85</ele>
        <time>2018-03-02T13:14:33Z</time>
      </trkpt>
      <trkpt lat="42.87047" lon="0.11352">
        <ele>2169.92</ele>
        <time>2018-03-02T13:14:57Z</time>
      </trkpt>
      <trkpt lat="42.87063" lon="0.11336">
        <ele>2162.92</ele>
        <time>2018-03-02T13:15:06Z</time>
      </trkpt>
      <trkpt lat="42.87078" lon="0.11321">
        <ele>2158.53</ele>
        <time>2018-03-02T13:15:18Z</time>
      </trkpt>
      <trkpt lat="42.87095" lon="0.11309">
        <ele>2154.91</ele>
        <time>2018-03-02T13:15:39Z</time>
      </trkpt>
      <trkpt lat="42.87112" lon="0.11299">
        <ele>2153.82</ele>
        <time>2018-03-02T13:15:44Z</time>
      </trkpt>
      <trkpt lat="42.8713" lon="0.1129">
        <ele>2150.92</ele>
        <time>2018-03-02T13:15:49Z</time>
      </trkpt>
      <trkpt lat="42.87152" lon="0.11286">
        <ele>2147.65</ele>
        <time>2018-03-02T13:15:53Z</time>
      </trkpt>
      <trkpt lat="42.87177" lon="0.11286">
        <ele>2145.58</ele>
        <time>2018-03-02T13:15:56Z</time>
      </trkpt>
      <trkpt lat="42.87196" lon="0.11287">
        <ele>2143.85</ele>
        <time>2018-03-02T13:15:59Z</time>
      </trkpt>
      <trkpt lat="42.87214" lon="0.11293">
        <ele>2139.52</ele>
        <time>2018-03-02T13:16:45Z</time>
      </trkpt>
      <trkpt lat="42.87232" lon="0.1129">
        <ele>2136.61</ele>
        <time>2018-03-02T13:17:37Z</time>
      </trkpt>
      <trkpt lat="42.87252" lon="0.11296">
        <ele>2134.62</ele>
        <time>2018-03-02T13:17:43Z</time>
      </trkpt>
      <trkpt lat="42.87272" lon="0.11299">
        <ele>2132.91</ele>
        <time>2018-03-02T13:17:46Z</time>
      </trkpt>
      <trkpt lat="42.87292" lon="0.113">
        <ele>2133.23</ele>
        <time>2018-03-02T13:17:49Z</time>
      </trkpt>
      <trkpt lat="42.87313" lon="0.11302">
        <ele>2132.52</ele>
        <time>2018-03-02T13:17:56Z</time>
      </trkpt>
      <trkpt lat="42.87331" lon="0.11312">
        <ele>2133.52</ele>
        <time>2018-03-02T13:18:21Z</time>
      </trkpt>
      <trkpt lat="42.87351" lon="0.11307">
        <ele>2130.83</ele>
        <time>2018-03-02T13:18:34Z</time>
      </trkpt>
      <trkpt lat="42.87367" lon="0.11293">
        <ele>2126.25</ele>
        <time>2018-03-02T13:18:39Z</time>
      </trkpt>
      <trkpt lat="42.87389" lon="0.11288">
        <ele>2125.46</ele>
        <time>2018-03-02T13:18:43Z</time>
      </trkpt>
      <trkpt lat="42.87408" lon="0.1129">
        <ele>2124.55</ele>
        <time>2018-03-02T13:18:47Z</time>
      </trkpt>
      <trkpt lat="42.87426" lon="0.11291">
        <ele>2123.53</ele>
        <time>2018-03-02T13:18:51Z</time>
      </trkpt>
      <trkpt lat="42.87446" lon="0.11288">
        <ele>2121.82</ele>
        <time>2018-03-02T13:18:57Z</time>
      </trkpt>
      <trkpt lat="42.87469" lon="0.11293">
        <ele>2118.65</ele>
        <time>2018-03-02T13:19:02Z</time>
      </trkpt>
      <trkpt lat="42.87486" lon="0.11299">
        <ele>2112.85</ele>
        <time>2018-03-02T13:19:11Z</time>
      </trkpt>
      <trkpt lat="42.87505" lon="0.11305">
        <ele>2108.83</ele>
        <time>2018-03-02T13:19:21Z</time>
      </trkpt>
      <trkpt lat="42.87525" lon="0.11303">
        <ele>2105.83</ele>
        <time>2018-03-02T13:19:30Z</time>
      </trkpt>
      <trkpt lat="42.87543" lon="0.11298">
        <ele>2103.55</ele>
        <time>2018-03-02T13:19:36Z</time>
      </trkpt>
      <trkpt lat="42.8756" lon="0.11291">
        <ele>2102.53</ele>
        <time>2018-03-02T13:19:41Z</time>
      </trkpt>
      <trkpt lat="42.87578" lon="0.11278">
        <ele>2102.52</ele>
        <time>2018-03-02T13:19:46Z</time>
      </trkpt>
      <trkpt lat="42.87595" lon="0.11263">
        <ele>2101.82</ele>
        <time>2018-03-02T13:19:51Z</time>
      </trkpt>
      <trkpt lat="42.87609" lon="0.11243">
        <ele>2097.94</ele>
        <time>2018-03-02T13:19:56Z</time>
      </trkpt>
      <trkpt lat="42.87624" lon="0.11222">
        <ele>2093.94</ele>
        <time>2018-03-02T13:20:01Z</time>
      </trkpt>
      <trkpt lat="42.87643" lon="0.11205">
        <ele>2090.94</ele>
        <time>2018-03-02T13:20:05Z</time>
      </trkpt>
      <trkpt lat="42.8766" lon="0.11199">
        <ele>2087.94</ele>
        <time>2018-03-02T13:20:10Z</time>
      </trkpt>
      <trkpt lat="42.87674" lon="0.11223">
        <ele>2077.55</ele>
        <time>2018-03-02T13:21:03Z</time>
      </trkpt>
      <trkpt lat="42.87687" lon="0.11247">
        <ele>2076.55</ele>
        <time>2018-03-02T13:21:06Z</time>
      </trkpt>
      <trkpt lat="42.87701" lon="0.11265">
        <ele>2075.61</ele>
        <time>2018-03-02T13:21:08Z</time>
      </trkpt>
      <trkpt lat="42.87718" lon="0.11273">
        <ele>2071.56</ele>
        <time>2018-03-02T13:21:17Z</time>
      </trkpt>
      <trkpt lat="42.87736" lon="0.11267">
        <ele>2042.26</ele>
        <time>2018-03-02T13:36:26Z</time>
      </trkpt>
      <trkpt lat="42.87719" lon="0.11277">
        <ele>2054.82</ele>
        <time>2018-03-02T13:42:32Z</time>
      </trkpt>
      <trkpt lat="42.87705" lon="0.11299">
        <ele>2174.36</ele>
        <time>2018-03-02T13:53:55Z</time>
      </trkpt>
      <trkpt lat="42.87715" lon="0.11278">
        <ele>2134.61</ele>
        <time>2018-03-02T13:54:20Z</time>
      </trkpt>
      <trkpt lat="42.87734" lon="0.11275">
        <ele>2121.85</ele>
        <time>2018-03-02T13:54:40Z</time>
      </trkpt>
      <trkpt lat="42.87716" lon="0.11267">
        <ele>2050.61</ele>
        <time>2018-03-02T14:01:36Z</time>
      </trkpt>
      <trkpt lat="42.87723" lon="0.11242">
        <ele>2056.52</ele>
        <time>2018-03-02T14:09:08Z</time>
      </trkpt>
      <trkpt lat="42.87722" lon="0.11217">
        <ele>2052.55</ele>
        <time>2018-03-02T14:09:18Z</time>
      </trkpt>
      <trkpt lat="42.87737" lon="0.11195">
        <ele>2045.25</ele>
        <time>2018-03-02T14:09:27Z</time>
      </trkpt>
      <trkpt lat="42.87755" lon="0.11183">
        <ele>2038.01</ele>
        <time>2018-03-02T14:09:40Z</time>
      </trkpt>
      <trkpt lat="42.87754" lon="0.11158">
        <ele>2034.52</ele>
        <time>2018-03-02T14:10:00Z</time>
      </trkpt>
      <trkpt lat="42.87763" lon="0.11136">
        <ele>2031.53</ele>
        <time>2018-03-02T14:10:12Z</time>
      </trkpt>
      <trkpt lat="42.87778" lon="0.11118">
        <ele>2026.25</ele>
        <time>2018-03-02T14:10:19Z</time>
      </trkpt>
      <trkpt lat="42.87791" lon="0.11095">
        <ele>2022.85</ele>
        <time>2018-03-02T14:10:26Z</time>
      </trkpt>
      <trkpt lat="42.87804" lon="0.11077">
        <ele>2018.62</ele>
        <time>2018-03-02T14:10:34Z</time>
      </trkpt>
      <trkpt lat="42.87821" lon="0.11063">
        <ele>2013.62</ele>
        <time>2018-03-02T14:10:46Z</time>
      </trkpt>
      <trkpt lat="42.87839" lon="0.11053">
        <ele>2009.83</ele>
        <time>2018-03-02T14:10:55Z</time>
      </trkpt>
      <trkpt lat="42.87854" lon="0.11037">
        <ele>2005.86</ele>
        <time>2018-03-02T14:11:03Z</time>
      </trkpt>
      <trkpt lat="42.87866" lon="0.11016">
        <ele>2001.85</ele>
        <time>2018-03-02T14:11:10Z</time>
      </trkpt>
      <trkpt lat="42.87876" lon="0.10995">
        <ele>1998.83</ele>
        <time>2018-03-02T14:11:17Z</time>
      </trkpt>
      <trkpt lat="42.87876" lon="0.11019">
        <ele>1993.85</ele>
        <time>2018-03-02T14:11:37Z</time>
      </trkpt>
      <trkpt lat="42.87874" lon="0.11045">
        <ele>1989.85</ele>
        <time>2018-03-02T14:11:45Z</time>
      </trkpt>
      <trkpt lat="42.87869" lon="0.1107">
        <ele>1985.64</ele>
        <time>2018-03-02T14:11:53Z</time>
      </trkpt>
      <trkpt lat="42.87864" lon="0.11094">
        <ele>1982.55</ele>
        <time>2018-03-02T14:12:01Z</time>
      </trkpt>
      <trkpt lat="42.8786" lon="0.11119">
        <ele>1977.85</ele>
        <time>2018-03-02T14:12:10Z</time>
      </trkpt>
      <trkpt lat="42.87854" lon="0.11142">
        <ele>1974.82</ele>
        <time>2018-03-02T14:12:19Z</time>
      </trkpt>
      <trkpt lat="42.87872" lon="0.11132">
        <ele>1964.86</ele>
        <time>2018-03-02T14:12:35Z</time>
      </trkpt>
      <trkpt lat="42.87886" lon="0.11116">
        <ele>1958.98</ele>
        <time>2018-03-02T14:12:40Z</time>
      </trkpt>
      <trkpt lat="42.87898" lon="0.11097">
        <ele>1954.95</ele>
        <time>2018-03-02T14:12:44Z</time>
      </trkpt>
      <trkpt lat="42.87909" lon="0.11076">
        <ele>1951.86</ele>
        <time>2018-03-02T14:12:48Z</time>
      </trkpt>
      <trkpt lat="42.87923" lon="0.1105">
        <ele>1948.65</ele>
        <time>2018-03-02T14:12:53Z</time>
      </trkpt>
      <trkpt lat="42.87936" lon="0.11029">
        <ele>1947.53</ele>
        <time>2018-03-02T14:12:57Z</time>
      </trkpt>
      <trkpt lat="42.8793" lon="0.11057">
        <ele>1942.85</ele>
        <time>2018-03-02T14:13:33Z</time>
      </trkpt>
      <trkpt lat="42.87928" lon="0.11085">
        <ele>1939.85</ele>
        <time>2018-03-02T14:13:39Z</time>
      </trkpt>
      <trkpt lat="42.8792" lon="0.11113">
        <ele>1937.61</ele>
        <time>2018-03-02T14:13:47Z</time>
      </trkpt>
      <trkpt lat="42.87916" lon="0.11137">
        <ele>1935.55</ele>
        <time>2018-03-02T14:13:53Z</time>
      </trkpt>
      <trkpt lat="42.87911" lon="0.11161">
        <ele>1933.61</ele>
        <time>2018-03-02T14:13:59Z</time>
      </trkpt>
      <trkpt lat="42.87928" lon="0.11144">
        <ele>1927.65</ele>
        <time>2018-03-02T14:14:43Z</time>
      </trkpt>
      <trkpt lat="42.87941" lon="0.11124">
        <ele>1923.92</ele>
        <time>2018-03-02T14:14:48Z</time>
      </trkpt>
      <trkpt lat="42.87958" lon="0.11117">
        <ele>1921.91</ele>
        <time>2018-03-02T14:14:53Z</time>
      </trkpt>
      <trkpt lat="42.87965" lon="0.11085">
        <ele>1914.42</ele>
        <time>2018-03-02T14:15:01Z</time>
      </trkpt>
      <trkpt lat="42.87978" lon="0.11065">
        <ele>1911.87</ele>
        <time>2018-03-02T14:15:04Z</time>
      </trkpt>
      <trkpt lat="42.87993" lon="0.1105">
        <ele>1910.55</ele>
        <time>2018-03-02T14:15:08Z</time>
      </trkpt>
      <trkpt lat="42.88009" lon="0.11036">
        <ele>1908.62</ele>
        <time>2018-03-02T14:15:13Z</time>
      </trkpt>
      <trkpt lat="42.88023" lon="0.11053">
        <ele>1905.41</ele>
        <time>2018-03-02T14:15:23Z</time>
      </trkpt>
      <trkpt lat="42.88041" lon="0.11061">
        <ele>1896.94</ele>
        <time>2018-03-02T14:15:43Z</time>
      </trkpt>
      <trkpt lat="42.88055" lon="0.11081">
        <ele>1890.94</ele>
        <time>2018-03-02T14:15:53Z</time>
      </trkpt>
      <trkpt lat="42.88069" lon="0.11064">
        <ele>1884.86</ele>
        <time>2018-03-02T14:15:59Z</time>
      </trkpt>
      <trkpt lat="42.88085" lon="0.11079">
        <ele>1874.94</ele>
        <time>2018-03-02T14:19:10Z</time>
      </trkpt>
      <trkpt lat="42.88097" lon="0.11099">
        <ele>1866.92</ele>
        <time>2018-03-02T14:19:22Z</time>
      </trkpt>
      <trkpt lat="42.88113" lon="0.11081">
        <ele>1862.85</ele>
        <time>2018-03-02T14:19:28Z</time>
      </trkpt>
      <trkpt lat="42.88128" lon="0.11063">
        <ele>1857.87</ele>
        <time>2018-03-02T14:19:34Z</time>
      </trkpt>
      <trkpt lat="42.88126" lon="0.11092">
        <ele>1851.89</ele>
        <time>2018-03-02T14:19:44Z</time>
      </trkpt>
      <trkpt lat="42.88142" lon="0.11076">
        <ele>1844.56</ele>
        <time>2018-03-02T14:19:57Z</time>
      </trkpt>
      <trkpt lat="42.88154" lon="0.11096">
        <ele>1836.64</ele>
        <time>2018-03-02T14:20:14Z</time>
      </trkpt>
      <trkpt lat="42.88153" lon="0.11122">
        <ele>1833.62</ele>
        <time>2018-03-02T14:20:22Z</time>
      </trkpt>
      <trkpt lat="42.88171" lon="0.11129">
        <ele>1827.65</ele>
        <time>2018-03-02T14:20:35Z</time>
      </trkpt>
      <trkpt lat="42.88176" lon="0.11153">
        <ele>1815.82</ele>
        <time>2018-03-02T14:20:58Z</time>
      </trkpt>
      <trkpt lat="42.88175" lon="0.11178">
        <ele>1811.85</ele>
        <time>2018-03-02T14:21:07Z</time>
      </trkpt>
      <trkpt lat="42.88193" lon="0.11175">
        <ele>1803.65</ele>
        <time>2018-03-02T14:21:27Z</time>
      </trkpt>
      <trkpt lat="42.88209" lon="0.11156">
        <ele>1798.94</ele>
        <time>2018-03-02T14:21:33Z</time>
      </trkpt>
      <trkpt lat="42.88227" lon="0.11156">
        <ele>1791.86</ele>
        <time>2018-03-02T14:21:47Z</time>
      </trkpt>
      <trkpt lat="42.88249" lon="0.11163">
        <ele>1784.15</ele>
        <time>2018-03-02T14:22:00Z</time>
      </trkpt>
      <trkpt lat="42.88267" lon="0.11172">
        <ele>1778.92</ele>
        <time>2018-03-02T14:22:06Z</time>
      </trkpt>
      <trkpt lat="42.88287" lon="0.11178">
        <ele>1776.86</ele>
        <time>2018-03-02T14:22:09Z</time>
      </trkpt>
      <trkpt lat="42.88307" lon="0.11186">
        <ele>1772.93</ele>
        <time>2018-03-02T14:22:13Z</time>
      </trkpt>
      <trkpt lat="42.88329" lon="0.11184">
        <ele>1771.53</ele>
        <time>2018-03-02T14:22:18Z</time>
      </trkpt>
      <trkpt lat="42.88348" lon="0.11175">
        <ele>1769.61</ele>
        <time>2018-03-02T14:22:24Z</time>
      </trkpt>
      <trkpt lat="42.88366" lon="0.1117">
        <ele>1768.53</ele>
        <time>2018-03-02T14:22:28Z</time>
      </trkpt>
      <trkpt lat="42.88385" lon="0.11163">
        <ele>1766.55</ele>
        <time>2018-03-02T14:22:33Z</time>
      </trkpt>
      <trkpt lat="42.88401" lon="0.11149">
        <ele>1763.65</ele>
        <time>2018-03-02T14:22:38Z</time>
      </trkpt>
      <trkpt lat="42.88406" lon="0.11125">
        <ele>1752.91</ele>
        <time>2018-03-02T14:26:57Z</time>
      </trkpt>
      <trkpt lat="42.88422" lon="0.11108">
        <ele>1751.82</ele>
        <time>2018-03-02T14:27:03Z</time>
      </trkpt>
      <trkpt lat="42.88436" lon="0.11089">
        <ele>1749.55</ele>
        <time>2018-03-02T14:27:09Z</time>
      </trkpt>
      <trkpt lat="42.88445" lon="0.11065">
        <ele>1746.85</ele>
        <time>2018-03-02T14:27:16Z</time>
      </trkpt>
      <trkpt lat="42.88456" lon="0.11045">
        <ele>1743.52</ele>
        <time>2018-03-02T14:27:55Z</time>
      </trkpt>
      <trkpt lat="42.88473" lon="0.11031">
        <ele>1744.52</ele>
        <time>2018-03-02T14:28:05Z</time>
      </trkpt>
      <trkpt lat="42.8849" lon="0.11016">
        <ele>1745.6</ele>
        <time>2018-03-02T14:28:15Z</time>
      </trkpt>
      <trkpt lat="42.88509" lon="0.11002">
        <ele>1741.86</ele>
        <time>2018-03-02T14:28:20Z</time>
      </trkpt>
      <trkpt lat="42.88525" lon="0.10989">
        <ele>1740.53</ele>
        <time>2018-03-02T14:28:24Z</time>
      </trkpt>
      <trkpt lat="42.88541" lon="0.10971">
        <ele>1739.55</ele>
        <time>2018-03-02T14:28:30Z</time>
      </trkpt>
      <trkpt lat="42.88557" lon="0.10951">
        <ele>1737.61</ele>
        <time>2018-03-02T14:28:35Z</time>
      </trkpt>
      <trkpt lat="42.88575" lon="0.10933">
        <ele>1735.62</ele>
        <time>2018-03-02T14:28:39Z</time>
      </trkpt>
      <trkpt lat="42.88596" lon="0.10917">
        <ele>1731.95</ele>
        <time>2018-03-02T14:28:43Z</time>
      </trkpt>
      <trkpt lat="42.88619" lon="0.10909">
        <ele>1729.59</ele>
        <time>2018-03-02T14:28:46Z</time>
      </trkpt>
      <trkpt lat="42.88638" lon="0.10903">
        <ele>1727.85</ele>
        <time>2018-03-02T14:28:49Z</time>
      </trkpt>
      <trkpt lat="42.8866" lon="0.10897">
        <ele>1726.61</ele>
        <time>2018-03-02T14:28:53Z</time>
      </trkpt>
      <trkpt lat="42.88679" lon="0.10885">
        <ele>1723.92</ele>
        <time>2018-03-02T14:29:10Z</time>
      </trkpt>
      <trkpt lat="42.88699" lon="0.10878">
        <ele>1721.62</ele>
        <time>2018-03-02T14:29:14Z</time>
      </trkpt>
      <trkpt lat="42.88715" lon="0.10865">
        <ele>1719.62</ele>
        <time>2018-03-02T14:29:19Z</time>
      </trkpt>
      <trkpt lat="42.88733" lon="0.10853">
        <ele>1718.64</ele>
        <time>2018-03-02T14:29:25Z</time>
      </trkpt>
      <trkpt lat="42.88751" lon="0.10845">
        <ele>1714.35</ele>
        <time>2018-03-02T14:29:33Z</time>
      </trkpt>
      <trkpt lat="42.88768" lon="0.10838">
        <ele>1707.31</ele>
        <time>2018-03-02T14:29:48Z</time>
      </trkpt>
      <trkpt lat="42.88785" lon="0.10829">
        <ele>1702.83</ele>
        <time>2018-03-02T14:30:01Z</time>
      </trkpt>
      <trkpt lat="42.88803" lon="0.10822">
        <ele>1700.64</ele>
        <time>2018-03-02T14:30:06Z</time>
      </trkpt>
      <trkpt lat="42.88821" lon="0.10815">
        <ele>1698.61</ele>
        <time>2018-03-02T14:30:11Z</time>
      </trkpt>
      <trkpt lat="42.88838" lon="0.10806">
        <ele>1695.01</ele>
        <time>2018-03-02T14:30:17Z</time>
      </trkpt>
      <trkpt lat="42.88857" lon="0.108">
        <ele>1692.82</ele>
        <time>2018-03-02T14:30:26Z</time>
      </trkpt>
      <trkpt lat="42.88878" lon="0.10796">
        <ele>1689.92</ele>
        <time>2018-03-02T14:30:32Z</time>
      </trkpt>
      <trkpt lat="42.88897" lon="0.1079">
        <ele>1686.55</ele>
        <time>2018-03-02T14:30:38Z</time>
      </trkpt>
      <trkpt lat="42.88915" lon="0.10781">
        <ele>1683.86</ele>
        <time>2018-03-02T14:30:43Z</time>
      </trkpt>
      <trkpt lat="42.88927" lon="0.10763">
        <ele>1680.62</ele>
        <time>2018-03-02T14:30:49Z</time>
      </trkpt>
      <trkpt lat="42.88945" lon="0.10754">
        <ele>1679.52</ele>
        <time>2018-03-02T14:30:58Z</time>
      </trkpt>
      <trkpt lat="42.88964" lon="0.1075">
        <ele>1675.53</ele>
        <time>2018-03-02T14:33:53Z</time>
      </trkpt>
      <trkpt lat="42.88983" lon="0.10748">
        <ele>1674.46</ele>
        <time>2018-03-02T14:33:59Z</time>
      </trkpt>
      <trkpt lat="42.89004" lon="0.10751">
        <ele>1674.52</ele>
        <time>2018-03-02T14:34:04Z</time>
      </trkpt>
      <trkpt lat="42.89027" lon="0.10752">
        <ele>1674.23</ele>
        <time>2018-03-02T14:34:09Z</time>
      </trkpt>
      <trkpt lat="42.89049" lon="0.10751">
        <ele>1675.51</ele>
        <time>2018-03-02T14:34:13Z</time>
      </trkpt>
      <trkpt lat="42.8907" lon="0.10742">
        <ele>1674.53</ele>
        <time>2018-03-02T14:34:17Z</time>
      </trkpt>
      <trkpt lat="42.89088" lon="0.1073">
        <ele>1672.85</ele>
        <time>2018-03-02T14:34:20Z</time>
      </trkpt>
      <trkpt lat="42.89108" lon="0.10727">
        <ele>1670.83</ele>
        <time>2018-03-02T14:34:30Z</time>
      </trkpt>
      <trkpt lat="42.89126" lon="0.10727">
        <ele>1669.55</ele>
        <time>2018-03-02T14:34:34Z</time>
      </trkpt>
      <trkpt lat="42.89134" lon="0.10704">
        <ele>1661.92</ele>
        <time>2018-03-02T14:34:46Z</time>
      </trkpt>
      <trkpt lat="42.89154" lon="0.10699">
        <ele>1661.46</ele>
        <time>2018-03-02T14:34:50Z</time>
      </trkpt>
      <trkpt lat="42.89174" lon="0.10696">
        <ele>1661.5</ele>
        <time>2018-03-02T14:34:54Z</time>
      </trkpt>
      <trkpt lat="42.89192" lon="0.10694">
        <ele>1660.61</ele>
        <time>2018-03-02T14:34:59Z</time>
      </trkpt>
      <trkpt lat="42.89185" lon="0.10671">
        <ele>1655.64</ele>
        <time>2018-03-02T14:35:11Z</time>
      </trkpt>
      <trkpt lat="42.89202" lon="0.1066">
        <ele>1650.86</ele>
        <time>2018-03-02T14:35:17Z</time>
      </trkpt>
      <trkpt lat="42.89224" lon="0.10665">
        <ele>1645.24</ele>
        <time>2018-03-02T14:35:23Z</time>
      </trkpt>
      <trkpt lat="42.89245" lon="0.10674">
        <ele>1642.62</ele>
        <time>2018-03-02T14:35:28Z</time>
      </trkpt>
      <trkpt lat="42.89263" lon="0.10674">
        <ele>1641.53</ele>
        <time>2018-03-02T14:35:32Z</time>
      </trkpt>
      <trkpt lat="42.89285" lon="0.10673">
        <ele>1639.83</ele>
        <time>2018-03-02T14:35:36Z</time>
      </trkpt>
      <trkpt lat="42.89303" lon="0.10681">
        <ele>1636.95</ele>
        <time>2018-03-02T14:35:39Z</time>
      </trkpt>
      <trkpt lat="42.89325" lon="0.10689">
        <ele>1635.62</ele>
        <time>2018-03-02T14:35:43Z</time>
      </trkpt>
      <trkpt lat="42.89342" lon="0.10697">
        <ele>1631.85</ele>
        <time>2018-03-02T14:35:58Z</time>
      </trkpt>
      <trkpt lat="42.89359" lon="0.10713">
        <ele>1626.82</ele>
        <time>2018-03-02T14:38:03Z</time>
      </trkpt>
      <trkpt lat="42.89365" lon="0.10685">
        <ele>1618.98</ele>
        <time>2018-03-02T14:38:12Z</time>
      </trkpt>
      <trkpt lat="42.89375" lon="0.10663">
        <ele>1610.22</ele>
        <time>2018-03-02T14:38:23Z</time>
      </trkpt>
      <trkpt lat="42.89394" lon="0.10656">
        <ele>1606.55</ele>
        <time>2018-03-02T14:38:31Z</time>
      </trkpt>
      <trkpt lat="42.8941" lon="0.10639">
        <ele>1603.62</ele>
        <time>2018-03-02T14:38:38Z</time>
      </trkpt>
      <trkpt lat="42.89429" lon="0.10637">
        <ele>1600.62</ele>
        <time>2018-03-02T14:38:46Z</time>
      </trkpt>
      <trkpt lat="42.89449" lon="0.10629">
        <ele>1595.94</ele>
        <time>2018-03-02T14:38:53Z</time>
      </trkpt>
      <trkpt lat="42.89461" lon="0.10609">
        <ele>1591.86</ele>
        <time>2018-03-02T14:38:59Z</time>
      </trkpt>
      <trkpt lat="42.89479" lon="0.1059">
        <ele>1584.04</ele>
        <time>2018-03-02T14:39:06Z</time>
      </trkpt>
      <trkpt lat="42.8949" lon="0.10569">
        <ele>1578.24</ele>
        <time>2018-03-02T14:39:12Z</time>
      </trkpt>
      <trkpt lat="42.89501" lon="0.10549">
        <ele>1573.21</ele>
        <time>2018-03-02T14:39:30Z</time>
      </trkpt>
      <trkpt lat="42.89514" lon="0.1053">
        <ele>1567.95</ele>
        <time>2018-03-02T14:39:35Z</time>
      </trkpt>
      <trkpt lat="42.89536" lon="0.10524">
        <ele>1563.95</ele>
        <time>2018-03-02T14:39:39Z</time>
      </trkpt>
      <trkpt lat="42.89552" lon="0.10503">
        <ele>1561.92</ele>
        <time>2018-03-02T14:39:42Z</time>
      </trkpt>
      <trkpt lat="42.89563" lon="0.1048">
        <ele>1561.53</ele>
        <time>2018-03-02T14:39:45Z</time>
      </trkpt>
      <trkpt lat="42.89574" lon="0.1046">
        <ele>1561.52</ele>
        <time>2018-03-02T14:39:48Z</time>
      </trkpt>
      <trkpt lat="42.89593" lon="0.10467">
        <ele>1545.53</ele>
        <time>2018-03-02T14:45:05Z</time>
      </trkpt>
      <trkpt lat="42.89611" lon="0.10473">
        <ele>1545.52</ele>
        <time>2018-03-02T14:45:09Z</time>
      </trkpt>
      <trkpt lat="42.8963" lon="0.10478">
        <ele>1546.49</ele>
        <time>2018-03-02T14:45:13Z</time>
      </trkpt>
      <trkpt lat="42.89652" lon="0.10482">
        <ele>1544.85</ele>
        <time>2018-03-02T14:45:17Z</time>
      </trkpt>
      <trkpt lat="42.89672" lon="0.10483">
        <ele>1545.22</ele>
        <time>2018-03-02T14:45:21Z</time>
      </trkpt>
      <trkpt lat="42.89694" lon="0.10478">
        <ele>1544.61</ele>
        <time>2018-03-02T14:45:25Z</time>
      </trkpt>
      <trkpt lat="42.89717" lon="0.10472">
        <ele>1543.61</ele>
        <time>2018-03-02T14:45:29Z</time>
      </trkpt>
      <trkpt lat="42.89737" lon="0.10465">
        <ele>1542.55</ele>
        <time>2018-03-02T14:45:33Z</time>
      </trkpt>
      <trkpt lat="42.89756" lon="0.10459">
        <ele>1540.83</ele>
        <time>2018-03-02T14:45:38Z</time>
      </trkpt>
      <trkpt lat="42.89774" lon="0.10456">
        <ele>1538.64</ele>
        <time>2018-03-02T14:45:43Z</time>
      </trkpt>
      <trkpt lat="42.8978" lon="0.1048">
        <ele>1534.86</ele>
        <time>2018-03-02T14:45:51Z</time>
      </trkpt>
      <trkpt lat="42.89801" lon="0.10484">
        <ele>1533.62</ele>
        <time>2018-03-02T14:45:54Z</time>
      </trkpt>
      <trkpt lat="42.89819" lon="0.10475">
        <ele>1532.82</ele>
        <time>2018-03-02T14:45:57Z</time>
      </trkpt>
      <trkpt lat="42.89837" lon="0.10468">
        <ele>1530.65</ele>
        <time>2018-03-02T14:46:00Z</time>
      </trkpt>
      <trkpt lat="42.89858" lon="0.10456">
        <ele>1528.85</ele>
        <time>2018-03-02T14:46:04Z</time>
      </trkpt>
      <trkpt lat="42.89881" lon="0.1045">
        <ele>1526.85</ele>
        <time>2018-03-02T14:46:08Z</time>
      </trkpt>
      <trkpt lat="42.89902" lon="0.10442">
        <ele>1523.04</ele>
        <time>2018-03-02T14:46:11Z</time>
      </trkpt>
      <trkpt lat="42.89927" lon="0.10438">
        <ele>1519.95</ele>
        <time>2018-03-02T14:46:14Z</time>
      </trkpt>
      <trkpt lat="42.89951" lon="0.10431">
        <ele>1516.95</ele>
        <time>2018-03-02T14:46:17Z</time>
      </trkpt>
      <trkpt lat="42.89972" lon="0.10428">
        <ele>1514.92</ele>
        <time>2018-03-02T14:46:20Z</time>
      </trkpt>
      <trkpt lat="42.89993" lon="0.10425">
        <ele>1510.95</ele>
        <time>2018-03-02T14:46:24Z</time>
      </trkpt>
      <trkpt lat="42.90012" lon="0.10418">
        <ele>1506.92</ele>
        <time>2018-03-02T14:46:29Z</time>
      </trkpt>
      <trkpt lat="42.90032" lon="0.10415">
        <ele>1504.85</ele>
        <time>2018-03-02T14:46:35Z</time>
      </trkpt>
      <trkpt lat="42.90052" lon="0.10413">
        <ele>1502.62</ele>
        <time>2018-03-02T14:46:39Z</time>
      </trkpt>
      <trkpt lat="42.90074" lon="0.10412">
        <ele>1501.55</ele>
        <time>2018-03-02T14:46:42Z</time>
      </trkpt>
      <trkpt lat="42.90097" lon="0.10411">
        <ele>1501.52</ele>
        <time>2018-03-02T14:46:45Z</time>
      </trkpt>
      <trkpt lat="42.90118" lon="0.10406">
        <ele>1500.82</ele>
        <time>2018-03-02T14:46:48Z</time>
      </trkpt>
      <trkpt lat="42.9014" lon="0.10398">
        <ele>1499.56</ele>
        <time>2018-03-02T14:46:51Z</time>
      </trkpt>
      <trkpt lat="42.9016" lon="0.10384">
        <ele>1496.24</ele>
        <time>2018-03-02T14:46:54Z</time>
      </trkpt>
      <trkpt lat="42.90179" lon="0.1037">
        <ele>1491.01</ele>
        <time>2018-03-02T14:46:57Z</time>
      </trkpt>
      <trkpt lat="42.90198" lon="0.10361">
        <ele>1488.65</ele>
        <time>2018-03-02T14:47:00Z</time>
      </trkpt>
      <trkpt lat="42.90221" lon="0.1036">
        <ele>1485.01</ele>
        <time>2018-03-02T14:47:04Z</time>
      </trkpt>
      <trkpt lat="42.9024" lon="0.10358">
        <ele>1482.86</ele>
        <time>2018-03-02T14:47:07Z</time>
      </trkpt>
      <trkpt lat="42.90261" lon="0.10357">
        <ele>1481.61</ele>
        <time>2018-03-02T14:47:11Z</time>
      </trkpt>
      <trkpt lat="42.90279" lon="0.10356">
        <ele>1480.52</ele>
        <time>2018-03-02T14:47:16Z</time>
      </trkpt>
      <trkpt lat="42.90298" lon="0.10352">
        <ele>1478.83</ele>
        <time>2018-03-02T14:47:21Z</time>
      </trkpt>
      <trkpt lat="42.90319" lon="0.10344">
        <ele>1478.53</ele>
        <time>2018-03-02T14:47:26Z</time>
      </trkpt>
      <trkpt lat="42.90334" lon="0.10331">
        <ele>1475.62</ele>
        <time>2018-03-02T14:47:31Z</time>
      </trkpt>
      <trkpt lat="42.90351" lon="0.10317">
        <ele>1472.83</ele>
        <time>2018-03-02T14:47:37Z</time>
      </trkpt>
    </trkseg>
  </trk>
</gpx>